AA1119 / N904NN 7700 Squawk Report (28th of January, 2020)

Aircraft B738 Reg No. N904NN Age 7 years old
Model 737 Jet engines 2 First flight 17-09-12
Registered 27-02-12 Rollout 10-09-12 Delivered 04-10-12
Construction No. 33317 Line No. 4197 Series 823
ADSHEX AC7F41 Airline name American Airlines Owner Wilmington Trust Company
Airfield based Dallas-Fort Worth~TX~N First tracked 2017-07-13 00:23:00

Flight history for N904NN

Route Flight No Date Playback
Cleveland Hopkins Intl (CLE) - Dallas Fort Worth (DFW) AA1590 2020-02-17 15:22:00
Dallas Fort Worth (DFW) - Cleveland Hopkins Intl (CLE) AA1607 2020-02-17 11:42:00
Tampa Intl (TPA) - Dallas Fort Worth (DFW) AA2353 2020-02-17 00:26:00
Dallas Fort Worth (DFW) - Louis Armstrong New Orleans Intl (MSY) - Dallas Fort Worth (DFW) AA138 2020-02-16 17:17:00
Dallas Fort Worth (DFW) - Baltimore Washington Intl (BWI) - Dallas Fort Worth (DFW) AA2368 2020-02-16 09:19:00
Licenciado Benito Juarez (MEX) - Dallas Fort Worth (DFW) AA1066 2020-02-15 15:06:00
Dallas Fort Worth (DFW) - Licenciado Benito Juarez (MEX) AA2417 2020-02-15 03:40:00
Ronald Reagan Washington Natl (DCA) - Dallas Fort Worth (DFW) AA323 2020-02-14 23:53:00
Dallas Fort Worth (DFW) - Ronald Reagan Washington Natl (DCA) AA1310 2020-02-14 20:33:00
Tucson Intl (TUS) - Dallas Fort Worth (DFW) AA1025 2020-02-14 15:02:00
Dallas Fort Worth (DFW) - Tucson Intl (TUS) AA649 2020-02-14 07:48:00
Dallas Fort Worth (DFW) - Indianapolis Intl (IND) - Dallas Fort Worth (DFW) AA1202 2020-02-14 04:03:00
Dallas Fort Worth (DFW) - Licenciado Gustavo Diaz Ordaz Intl (PVR) - Dallas Fort Worth (DFW) AA353 2020-02-13 20:49:00
Palm Beach Intl (PBI) - Dallas Fort Worth (DFW) AA2188 2020-02-12 23:36:00
Washington Dulles International (IAD) - Dallas Fort Worth (DFW) AA2617 2020-02-12 15:43:00
Phoenix Sky Harbor Intl (PHX) - George Bush Intercontinental (IAH) AA661 2020-02-12 02:26:00
John F Kennedy Intl (JFK) - Charlotte Douglas (CLT) AA2291 2020-02-12 00:07:00
Sangster Intl (MBJ) - John F Kennedy Intl (JFK) AA1349 2020-02-11 22:06:00
John F Kennedy Intl (JFK) - Sangster Intl (MBJ) - John F Kennedy Intl (JFK) AA1349 2020-02-11 12:05:00
Juan Santamaria Intl (SJO) - John F Kennedy Intl (JFK) AA579 2020-02-10 10:35:00
Time Lat Lon Altitude Heading Speed Vertical Rate
2020-01-29 03:24:10 GMT 41.992493 -87.916336 0 109 6
2020-01-29 03:23:35 GMT 41.991886 -87.917542 0 109 9
2020-01-29 03:23:27 GMT 41.992058 -87.917908 0 140 14
2020-01-29 03:23:05 GMT 41.993576 -87.919609 0 140 20
2020-01-29 03:22:47 GMT 41.994598 -87.920746 0 137 12
2020-01-29 03:21:51 GMT 41.992912 -87.924828 0 50 22
2020-01-29 03:21:36 GMT 41.991817 -87.926582 0 47 23
2020-01-29 03:21:30 GMT 41.991428 -87.927193 0 50 19
2020-01-29 03:21:21 GMT 41.991028 -87.927849 0 50 14
2020-01-29 03:21:00 GMT 41.990673 -87.929451 0 56 12
2020-01-29 03:20:48 GMT 41.990131 -87.929939 0 19 14
2020-01-29 03:20:39 GMT 41.989655 -87.930145 0 0 15
2020-01-29 03:19:57 GMT 41.987324 -87.930145 0 351 11
2020-01-29 03:19:51 GMT 41.987045 -87.930046 0 317 12
2020-01-29 03:19:44 GMT 41.986839 -87.929749 0 281 13
2020-01-29 03:17:55 GMT 41.980122 -87.921234 0 320 20
2020-01-29 03:17:33 GMT 41.978703 -87.919640 0 320 21
2020-01-29 03:16:45 GMT 41.975384 -87.915909 0 320 19
2020-01-29 03:16:39 GMT 41.974903 -87.915375 0 320 22
2020-01-29 03:16:26 GMT 41.973885 -87.914223 0 320 19
2020-01-29 03:16:16 GMT 41.973324 -87.913628 0 331 12
2020-01-29 03:16:04 GMT 41.972916 -87.913284 0 250 7
2020-01-29 03:15:49 GMT 41.973141 -87.912598 0 230 12
2020-01-29 03:15:45 GMT 41.973289 -87.912361 0 230 13
2020-01-29 03:15:33 GMT 41.973759 -87.911613 0 222 15
2020-01-29 03:15:23 GMT 41.974243 -87.911079 0 219 9
2020-01-29 03:15:09 GMT 41.974617 -87.910553 0 267 9
2020-01-29 03:15:04 GMT 41.974606 -87.910332 0 300 9
2020-01-29 03:14:45 GMT 41.973850 -87.909416 0 317 13
2020-01-29 03:14:42 GMT 41.973701 -87.909210 0 317 13
2020-01-29 03:14:27 GMT 41.973129 -87.908478 0 315 14
2020-01-29 03:14:12 GMT 41.972466 -87.907440 0 298 12
2020-01-29 03:13:57 GMT 41.972233 -87.906548 0 275 11
2020-01-29 03:13:48 GMT 41.972195 -87.905968 0 275 12
2020-01-29 03:13:29 GMT 41.972122 -87.904686 0 272 8
2020-01-29 03:13:15 GMT 41.972099 -87.904060 0 272 9
2020-01-29 03:13:03 GMT 41.972076 -87.903343 0 270 11
2020-01-29 03:12:47 GMT 41.972076 -87.901970 0 270 13
2020-01-29 03:12:38 GMT 41.972076 -87.901314 0 270 9
2020-01-29 03:12:31 GMT 41.972076 -87.901031 0 270 8
2020-01-29 03:12:24 GMT 41.972080 -87.900703 0 270 6
2020-01-29 03:12:05 GMT 41.972088 -87.900002 0 270 9
2020-01-29 03:12:02 GMT 41.972092 -87.899872 0 270 10
2020-01-29 03:11:47 GMT 41.972145 -87.898926 0 253 10
2020-01-29 03:11:40 GMT 41.972267 -87.898499 0 239 8
2020-01-29 03:11:25 GMT 41.972672 -87.898193 0 146 9
2020-01-29 03:11:18 GMT 41.972881 -87.898384 0 146 9
2020-01-29 03:11:07 GMT 41.973244 -87.898712 0 5
2020-01-29 03:10:33 GMT 41.973450 -87.898895 0 5
2020-01-29 03:06:42 GMT 41.973930 -87.898613 0 0
2020-01-29 03:06:04 GMT 41.973907 -87.898605 0 0
2020-01-29 03:05:49 GMT 41.973930 -87.898643 0 3
2020-01-29 03:05:32 GMT 41.973988 -87.898865 0 3
2020-01-29 03:05:19 GMT 41.974056 -87.899147 0 4
2020-01-29 03:05:11 GMT 41.974056 -87.899300 0 4
2020-01-29 03:05:02 GMT 41.974056 -87.899460 0 4
2020-01-29 03:04:52 GMT 41.974022 -87.899666 0 4
2020-01-29 03:04:00 GMT 41.973930 -87.900002 0 0
2020-01-29 03:03:25 GMT 41.973930 -87.899986 0 0
2020-01-29 03:03:15 GMT 41.973930 -87.899986 0 0
2020-01-29 03:02:54 GMT 41.973930 -87.899986 0 0
2020-01-29 03:02:51 GMT 41.973930 -87.900002 0 0
2020-01-29 03:02:30 GMT 41.973930 -87.899986 0 0
2020-01-29 03:02:19 GMT 41.973930 -87.900002 0 0
2020-01-29 03:01:34 GMT 41.973919 -87.899986 0 0
2020-01-29 03:01:19 GMT 41.973930 -87.900002 0 0
2020-01-29 03:00:49 GMT 41.973930 -87.899986 0 0
2020-01-29 03:00:31 GMT 41.973930 -87.900002 0 0
2020-01-29 03:00:15 GMT 41.973953 -87.900002 0 0
2020-01-29 02:59:51 GMT 41.973919 -87.900002 0 0
2020-01-29 02:59:11 GMT 41.973919 -87.899986 0 0
2020-01-29 02:57:35 GMT 41.973930 -87.900002 0 0
2020-01-29 02:57:05 GMT 41.973930 -87.900002 0 0
2020-01-29 02:56:46 GMT 41.973930 -87.900002 0 0
2020-01-29 02:56:35 GMT 41.973930 -87.900002 0 0
2020-01-29 02:56:06 GMT 41.973930 -87.900002 0 0
2020-01-29 02:55:08 GMT 41.973919 -87.899986 0 0
2020-01-29 02:54:27 GMT 41.973919 -87.900002 0 0
2020-01-29 02:53:36 GMT 41.973919 -87.900002 0 0
We lost coverage of the aircraft here for a total of 97 minutes
2020-01-29 01:16:26 GMT 41.973942 -87.900093 0 247 0 0
2020-01-29 01:16:02 GMT 41.973942 -87.899971 0 247 1 0
2020-01-29 01:15:18 GMT 41.974045 -87.899239 0 312 4 0
2020-01-29 01:14:42 GMT 41.973186 -87.898308 0 315 11 0
2020-01-29 01:14:38 GMT 41.973011 -87.898048 0 303 11 0
2020-01-29 01:13:57 GMT 41.971565 -87.896309 0 323 8 0
2020-01-29 01:13:42 GMT 41.971172 -87.895897 0 300 9 0
2020-01-29 01:13:37 GMT 41.971081 -87.895668 0 298 11 0
2020-01-29 01:13:14 GMT 41.970337 -87.894417 0 345 12 0
2020-01-29 01:12:57 GMT 41.969276 -87.894524 0 47 13 0
2020-01-29 01:12:52 GMT 41.969124 -87.894791 0 78 12 0
2020-01-29 01:12:38 GMT 41.969078 -87.895897 0 87 14 0
2020-01-29 01:12:31 GMT 41.969067 -87.896423 0 90 15 0
2020-01-29 01:08:07 GMT 41.968983 -87.928314 0 90 0 0
2020-01-29 01:08:06 GMT 41.968983 -87.928314 0 90 0 0
2020-01-29 01:08:07 GMT 41.968983 -87.928314 0 90 0 0
2020-01-29 01:08:07 GMT 41.968983 -87.928314 0 90 0 0
2020-01-29 01:08:06 GMT 41.968983 -87.928314 0 90 0 0
2020-01-29 01:08:06 GMT 41.968983 -87.930161 500 89 167 -832
2020-01-29 01:08:03 GMT 41.969009 -87.932198 550 89 167 -832
2020-01-29 01:07:51 GMT 41.968937 -87.945366 725 89 170 -960
2020-01-29 01:07:42 GMT 41.968872 -87.954170 875 89 170 -1024
2020-01-29 01:07:31 GMT 41.968872 -87.965034 1,050 90 168 -1024
2020-01-29 01:07:25 GMT 41.968891 -87.971169 1,225 90 168 -896
2020-01-29 01:07:20 GMT 41.968891 -87.977242 1,225 89 168 -960
2020-01-29 01:07:15 GMT 41.968845 -87.982475 1,375 89 165 -960
2020-01-29 01:07:09 GMT 41.968800 -87.988670 1,700 89 158 -896
2020-01-29 01:07:06 GMT 41.968826 -87.992126 1,450 90 161 -960
2020-01-29 01:07:02 GMT 41.968826 -87.999306 1,525 89 159 -896
2020-01-29 01:06:59 GMT 41.968826 -87.999306 1,575 89 157 -768
2020-01-29 01:06:55 GMT 41.968781 -88.002548 1,600 89 157 -896
2020-01-29 01:06:51 GMT 41.968750 -88.006432 1,825 89 157 -832
2020-01-29 01:06:48 GMT 41.968735 -88.009537 1,700 89 157 -896
2020-01-29 01:06:44 GMT 41.968704 -88.013840 1,775 89 158 -960
2020-01-29 01:06:41 GMT 41.968704 -88.016266 1,825 89 161 -832
2020-01-29 01:06:37 GMT 41.968658 -88.021309 1,950 88 164 -896
2020-01-29 01:06:33 GMT 41.968643 -88.024269 1,925 88 164 -832
2020-01-29 01:06:28 GMT 41.968567 -88.030190 2,025 88 166 -960
2020-01-29 01:06:20 GMT 41.968460 -88.038628 2,125 88 168 -960
2020-01-29 01:06:17 GMT 41.968426 -88.041237 2,200 91 177 -960
2020-01-29 01:06:12 GMT 41.968426 -88.046539 2,275 90 173 -960
2020-01-29 01:06:09 GMT 41.968552 -88.053238 2,375 91 177 -960
2020-01-29 01:06:06 GMT 41.968597 -88.055733 2,400 90 180 -1024
2020-01-29 01:05:57 GMT 41.968704 -88.063278 2,525 90 182 -1088
2020-01-29 01:05:53 GMT 41.968658 -88.073814 2,775 90 178 -960
2020-01-29 01:05:48 GMT 41.968658 -88.077072 2,750 90 178 -1024
2020-01-29 01:05:44 GMT 41.968658 -88.077072 2,750 90 178 -1024
2020-01-29 01:05:41 GMT 41.968689 -88.079887 2,825 89 175 -768
2020-01-29 01:05:35 GMT 41.968643 -88.086128 2,850 89 176 -192
2020-01-29 01:05:32 GMT 41.968613 -88.090805 2,850 90 178 -64
2020-01-29 01:05:26 GMT 41.968658 -88.097260 2,850 90 179 0
2020-01-29 01:05:21 GMT 41.968643 -88.102364 2,850 90 178 64
2020-01-29 01:05:17 GMT 41.968643 -88.111221 2,850 90 178 192
2020-01-29 01:05:13 GMT 41.968643 -88.111221 2,850 90 178 64
2020-01-29 01:05:10 GMT 41.968704 -88.118401 2,850 90 178 -192
2020-01-29 01:05:04 GMT 41.968704 -88.120377 2,850 90 178 -192
2020-01-29 01:05:00 GMT 41.968735 -88.125267 2,850 90 174 64
2020-01-29 01:04:56 GMT 41.968826 -88.129456 2,850 97 176 0
2020-01-29 01:04:53 GMT 41.969124 -88.133797 2,850 98 176 0
2020-01-29 01:04:49 GMT 41.969467 -88.136940 2,850 102 176 64
2020-01-29 01:04:45 GMT 41.970379 -88.142349 2,850 103 175 0
2020-01-29 01:04:42 GMT 41.970886 -88.145119 2,850 102 174 0
2020-01-29 01:04:36 GMT 41.971802 -88.151489 2,850 85 173 -64
2020-01-29 01:04:32 GMT 41.971619 -88.156357 2,850 74 173 -192
2020-01-29 01:04:29 GMT 41.971252 -88.159042 2,875 63 172 64
2020-01-29 01:04:24 GMT 41.969868 -88.163811 2,875 61 172 64
2020-01-29 01:04:21 GMT 41.968597 -88.166534 2,850 46 170 128
2020-01-29 01:04:18 GMT 41.966469 -88.169624 2,850 39 171 128
2020-01-29 01:04:13 GMT 41.964340 -88.171898 2,850 34 171 -192
2020-01-29 01:04:10 GMT 41.959396 -88.176147 2,850 31 171 0
2020-01-29 01:04:07 GMT 41.959396 -88.176147 2,850 26 172 192
2020-01-29 01:04:04 GMT 41.957111 -88.177673 2,850 20 171 -128
2020-01-29 01:04:01 GMT 41.954971 -88.178886 2,850 18 171 -192
2020-01-29 01:03:56 GMT 41.951660 -88.180389 2,850 16 172 0
2020-01-29 01:03:52 GMT 41.949059 -88.181313 2,850 10 172 0
2020-01-29 01:03:49 GMT 41.946499 -88.182014 2,850 8 171 128
2020-01-29 01:03:46 GMT 41.944359 -88.182335 2,850 1 172 -128
2020-01-29 01:03:43 GMT 41.941360 -88.182640 2,850 359 172 -64
2020-01-29 01:03:40 GMT 41.934586 -88.182137 2,850 356 172 128
2020-01-29 01:03:35 GMT 41.931702 -88.181641 2,850 307 224 -1216
2020-01-29 01:03:31 GMT 41.931702 -88.181641 2,850 353 172 0
2020-01-29 01:03:24 GMT 41.924526 -88.180420 2,850 351 170 0
2020-01-29 01:03:18 GMT 41.922432 -88.179909 2,850 347 169 0
2020-01-29 01:03:13 GMT 41.918011 -88.178505 2,850 342 168 64
2020-01-29 01:03:10 GMT 41.916412 -88.177834 2,850 339 168 64
2020-01-29 01:03:07 GMT 41.914238 -88.176781 2,850 336 168 64
2020-01-29 01:03:04 GMT 41.911911 -88.175377 2,850 334 168 192
2020-01-29 01:03:01 GMT 41.906883 -88.171539 2,850 328 168 64
2020-01-29 01:02:58 GMT 41.906883 -88.171539 2,850 325 169 64
2020-01-29 01:02:51 GMT 41.901123 -88.165405 2,850 319 168 -64
2020-01-29 01:02:48 GMT 41.901123 -88.165405 2,850 306 179 0
2020-01-29 01:02:39 GMT 41.896774 -88.159538 2,850 310 166 0
2020-01-29 01:02:36 GMT 41.895012 -88.156662 2,850 306 172 -128
2020-01-29 01:02:33 GMT 41.893982 -88.154732 2,850 306 185 0
2020-01-29 01:02:30 GMT 41.889893 -88.147018 2,850 306 193 -1024
2020-01-29 01:02:26 GMT 41.889893 -88.147018 2,825 306 183 0
2020-01-29 01:02:22 GMT 41.888680 -88.144653 2,850 306 187 -192
2020-01-29 01:02:19 GMT 41.886913 -88.141396 2,850 306 190 -576
2020-01-29 01:02:16 GMT 41.883282 -88.134621 2,925 306 193 -1024
2020-01-29 01:02:12 GMT 41.881119 -88.130516 3,050 306 194 -1152
2020-01-29 01:02:08 GMT 41.878998 -88.126579 3,100 306 196 -1152
2020-01-29 01:02:04 GMT 41.878998 -88.126579 3,125 306 196 -1088
2020-01-29 01:02:01 GMT 41.877823 -88.124397 3,175 306 197 -1152
2020-01-29 01:01:58 GMT 41.875462 -88.120064 3,250 306 198 -1216
2020-01-29 01:01:53 GMT 41.872852 -88.115204 3,350 306 199 -1152
2020-01-29 01:01:50 GMT 41.869766 -88.109482 3,450 305 202 -1088
2020-01-29 01:01:47 GMT 41.866928 -88.104050 3,600 305 206 -1152
2020-01-29 01:01:41 GMT 41.865051 -88.100365 3,575 305 204 -1088
2020-01-29 01:01:38 GMT 41.865051 -88.100365 3,625 305 206 -1152
2020-01-29 01:01:34 GMT 41.862797 -88.096107 3,700 306 208 -1152
2020-01-29 01:01:31 GMT 41.861023 -88.092751 3,850 306 215 -832
2020-01-29 01:01:27 GMT 41.859375 -88.089500 3,800 306 212 -1024
2020-01-29 01:01:24 GMT 41.857315 -88.085693 3,850 306 215 -832
2020-01-29 01:01:20 GMT 41.854706 -88.080826 3,925 306 218 -832
2020-01-29 01:01:17 GMT 41.853378 -88.078262 3,950 306 219 -1024
2020-01-29 01:01:14 GMT 41.851158 -88.074074 4,475 306 238 -768
2020-01-29 01:01:10 GMT 41.849625 -88.071152 4,125 306 223 -1152
2020-01-29 01:01:07 GMT 41.847153 -88.066597 4,150 307 224 -1216
2020-01-29 01:01:03 GMT 41.842037 -88.057205 4,475 306 238 -768
2020-01-29 01:00:59 GMT 41.842037 -88.057205 4,300 306 228 -1152
2020-01-29 01:00:56 GMT 41.840733 -88.054848 4,350 306 230 -896
2020-01-29 01:00:53 GMT 41.838543 -88.050758 4,400 307 234 -704
2020-01-29 01:00:49 GMT 41.836216 -88.046478 4,450 307 237 -704
2020-01-29 01:00:46 GMT 41.834213 -88.042839 4,475 306 238 -768
2020-01-29 01:00:40 GMT 41.830303 -88.035622 4,550 306 240 -1088
2020-01-29 01:00:36 GMT 41.827377 -88.030014 4,725 305 242 -1152
2020-01-29 01:00:29 GMT 41.822857 -88.021439 5,025 306 244 -1152
2020-01-29 01:00:25 GMT 41.820419 -88.016785 4,900 306 244 -1152
2020-01-29 01:00:22 GMT 41.816391 -88.009102 4,975 306 245 -1152
2020-01-29 01:00:19 GMT 41.816391 -88.009102 5,025 306 246 -1152
2020-01-29 01:00:15 GMT 41.814011 -88.004639 5,050 306 246 -1152
2020-01-29 01:00:11 GMT 41.811493 -87.999863 5,100 306 246 -1152
2020-01-29 01:00:08 GMT 41.808983 -87.995186 5,250 306 247 -1216
2020-01-29 01:00:03 GMT 41.805634 -87.988937 5,325 306 249 -1216
2020-01-29 00:59:59 GMT 41.803024 -87.984200 5,475 306 250 -1280
2020-01-29 00:59:52 GMT 41.798355 -87.975517 5,500 306 251 -1280
2020-01-29 00:59:49 GMT 41.797112 -87.973274 5,575 306 251 -1280
2020-01-29 00:59:46 GMT 41.794739 -87.968803 5,700 306 252 -1216
2020-01-29 00:59:43 GMT 41.792786 -87.965164 5,700 306 253 -1152
2020-01-29 00:59:40 GMT 41.791061 -87.961975 5,750 306 254 -1088
2020-01-29 00:59:37 GMT 41.788639 -87.957504 5,800 306 257 -768
2020-01-29 00:59:34 GMT 41.785892 -87.952522 5,825 307 261 -192
2020-01-29 00:59:30 GMT 41.782928 -87.946991 5,825 307 273 -64
2020-01-29 00:59:26 GMT 41.780308 -87.942238 5,850 307 275 -64
2020-01-29 00:59:21 GMT 41.776630 -87.935722 5,850 307 275 -64
2020-01-29 00:59:17 GMT 41.773560 -87.930229 5,850 307 280 -64
2020-01-29 00:59:14 GMT 41.771137 -87.925949 5,850 307 285 -128
2020-01-29 00:59:10 GMT 41.768555 -87.921272 5,850 307 289 -384
2020-01-29 00:59:07 GMT 41.766014 -87.916748 5,875 307 291 -640
2020-01-29 00:59:04 GMT 41.763245 -87.911850 5,900 307 294 -1152
2020-01-29 00:59:00 GMT 41.760056 -87.905952 6,050 307 295 -1728
2020-01-29 00:58:57 GMT 41.757217 -87.900780 6,100 306 296 -1920
2020-01-29 00:58:54 GMT 41.756008 -87.898605 6,150 306 296 -1920
2020-01-29 00:58:51 GMT 41.753265 -87.893562 6,250 306 296 -1920
2020-01-29 00:58:47 GMT 41.750290 -87.888069 7,150 306 294 -1920
2020-01-29 00:58:43 GMT 41.744881 -87.878166 6,600 307 295 -1920
2020-01-29 00:58:37 GMT 41.738205 -87.865906 6,775 307 295 -1920
2020-01-29 00:58:33 GMT 41.738205 -87.865906 6,850 307 295 -1920
2020-01-29 00:58:30 GMT 41.736191 -87.862221 6,925 307 295 -1920
2020-01-29 00:58:26 GMT 41.732498 -87.855431 7,075 306 295 -1920
2020-01-29 00:58:22 GMT 41.729645 -87.850113 7,175 306 294 -1920
2020-01-29 00:58:19 GMT 41.728043 -87.847176 7,250 306 294 -1920
2020-01-29 00:58:15 GMT 41.724354 -87.840355 7,450 306 293 -1920
2020-01-29 00:58:12 GMT 41.721886 -87.835823 7,550 307 292 -1920
2020-01-29 00:58:09 GMT 41.719604 -87.831543 7,750 307 292 -1920
2020-01-29 00:58:05 GMT 41.715832 -87.824707 7,750 307 291 -1920
2020-01-29 00:58:02 GMT 41.713577 -87.820648 8,775 307 290 -1984
2020-01-29 00:57:59 GMT 41.711380 -87.816719 7,925 307 291 -1920
2020-01-29 00:57:54 GMT 41.707733 -87.810272 8,075 307 290 -1984
2020-01-29 00:57:51 GMT 41.704891 -87.805222 8,175 307 290 -1984
2020-01-29 00:57:48 GMT 41.702499 -87.800926 8,250 307 289 -1984
2020-01-29 00:57:43 GMT 41.698467 -87.793793 8,450 307 288 -1984
2020-01-29 00:57:40 GMT 41.696468 -87.790215 8,625 307 287 -1920
2020-01-29 00:57:37 GMT 41.693672 -87.785233 8,625 307 287 -1920
2020-01-29 00:57:34 GMT 41.690872 -87.780075 8,775 307 286 -1920
2020-01-29 00:57:30 GMT 41.688400 -87.775703 8,850 307 286 -1984
2020-01-29 00:57:27 GMT 41.685837 -87.771027 8,925 307 284 -1984
2020-01-29 00:57:24 GMT 41.683151 -87.766197 9,200 307 283 -1984
2020-01-29 00:57:18 GMT 41.678238 -87.757294 9,350 307 280 -1984
2020-01-29 00:57:14 GMT 41.675034 -87.751610 9,425 307 278 -2048
2020-01-29 00:57:10 GMT 41.671875 -87.745934 9,575 307 277 -1984
2020-01-29 00:57:06 GMT 41.669495 -87.741684 9,825 307 277 -128
2020-01-29 00:57:03 GMT 41.664532 -87.732796 9,800 307 276 -1088
2020-01-29 00:57:00 GMT 41.662624 -87.729340 9,825 307 276 -512
2020-01-29 00:56:54 GMT 41.660751 -87.725952 9,850 307 279 0
2020-01-29 00:56:51 GMT 41.657593 -87.720276 9,850 307 280 0
2020-01-29 00:56:47 GMT 41.654572 -87.714653 9,850 306 282 0
2020-01-29 00:56:41 GMT 41.647842 -87.702293 9,850 306 286 0
2020-01-29 00:56:37 GMT 41.647842 -87.702293 9,850 306 286 0
2020-01-29 00:56:34 GMT 41.645119 -87.697281 9,850 306 289 64
2020-01-29 00:56:31 GMT 41.642807 -87.692993 9,850 306 288 0
2020-01-29 00:56:28 GMT 41.639999 -87.687759 9,850 306 290 0
2020-01-29 00:56:24 GMT 41.636307 -87.680946 9,850 306 291 0
2020-01-29 00:56:19 GMT 41.632462 -87.673767 9,850 306 293 0
2020-01-29 00:56:16 GMT 41.627884 -87.665215 9,850 306 295 0
2020-01-29 00:56:13 GMT 41.627884 -87.665215 9,850 306 296 0
2020-01-29 00:56:10 GMT 41.626358 -87.662399 9,850 306 297 0
2020-01-29 00:56:07 GMT 41.620960 -87.652435 9,850 306 301 0
2020-01-29 00:56:04 GMT 41.619598 -87.649864 9,850 306 301 0
2020-01-29 00:55:58 GMT 41.615936 -87.643059 9,850 306 304 0
2020-01-29 00:55:52 GMT 41.612183 -87.636070 9,850 306 305 0
2020-01-29 00:55:49 GMT 41.608658 -87.629509 9,850 306 307 0
2020-01-29 00:55:46 GMT 41.606277 -87.625015 9,850 306 308 0
2020-01-29 00:55:41 GMT 41.602112 -87.617340 9,850 306 312 0
2020-01-29 00:55:38 GMT 41.599590 -87.612648 9,850 306 311 0
2020-01-29 00:55:35 GMT 41.597626 -87.609039 9,825 306 321 64
2020-01-29 00:55:32 GMT 41.595520 -87.605103 9,850 306 315 0
2020-01-29 00:55:28 GMT 41.592178 -87.598991 9,825 306 317 0
2020-01-29 00:55:25 GMT 41.586605 -87.588562 9,825 306 321 0
2020-01-29 00:55:19 GMT 41.583252 -87.582321 9,825 306 324 0
2020-01-29 00:55:14 GMT 41.578922 -87.574127 9,850 305 325 -384
2020-01-29 00:55:11 GMT 41.576157 -87.568901 9,875 305 325 -640
2020-01-29 00:55:08 GMT 41.573055 -87.562950 9,925 305 324 -640
2020-01-29 00:55:05 GMT 41.571613 -87.560204 9,925 305 324 -640
2020-01-29 00:55:02 GMT 41.569336 -87.555916 9,950 306 325 -640
2020-01-29 00:54:59 GMT 41.566399 -87.550369 9,975 305 324 -640
2020-01-29 00:54:56 GMT 41.563747 -87.545258 10,025 306 323 -640
2020-01-29 00:54:53 GMT 41.561417 -87.540871 10,075 306 323 -640
2020-01-29 00:54:50 GMT 41.558395 -87.535133 10,075 306 323 -640
2020-01-29 00:54:46 GMT 41.554642 -87.528015 10,150 306 322 -640
2020-01-29 00:54:43 GMT 41.552307 -87.523582 10,175 306 322 -704
2020-01-29 00:54:40 GMT 41.549469 -87.518211 10,175 306 322 -704
2020-01-29 00:54:37 GMT 41.546631 -87.512848 10,250 306 321 -640
2020-01-29 00:54:31 GMT 41.542332 -87.504761 10,325 306 320 -704
2020-01-29 00:54:24 GMT 41.535873 -87.492683 10,475 306 319 -640
2020-01-29 00:54:19 GMT 41.531578 -87.484642 10,425 306 319 -704
2020-01-29 00:54:15 GMT 41.528275 -87.478386 10,500 306 319 -640
2020-01-29 00:54:12 GMT 41.525433 -87.473083 10,550 306 318 -640
2020-01-29 00:54:09 GMT 41.523743 -87.469902 10,575 306 318 -640
2020-01-29 00:54:06 GMT 41.521088 -87.464905 10,575 306 317 -704
2020-01-29 00:54:03 GMT 41.515705 -87.454880 10,650 312 316 0
2020-01-29 00:53:56 GMT 41.512306 -87.448486 10,700 306 315 -640
2020-01-29 00:53:49 GMT 41.505928 -87.436867 10,775 307 316 -384
2020-01-29 00:53:45 GMT 41.502823 -87.431198 10,800 307 316 -384
2020-01-29 00:53:40 GMT 41.498852 -87.423965 10,825 307 316 -256
2020-01-29 00:53:37 GMT 41.496552 -87.419899 10,825 307 316 -256
2020-01-29 00:53:34 GMT 41.493965 -87.415215 10,850 308 317 -192
2020-01-29 00:53:30 GMT 41.489822 -87.408096 10,850 312 316 0
2020-01-29 00:53:27 GMT 41.486847 -87.403481 10,850 314 316 64
2020-01-29 00:53:24 GMT 41.483688 -87.399178 10,850 319 317 -64
2020-01-29 00:53:20 GMT 41.479019 -87.393745 10,850 323 318 -64
2020-01-29 00:53:15 GMT 41.472595 -87.387108 10,850 323 318 0
2020-01-29 00:53:09 GMT 41.466080 -87.380463 10,850 323 318 0
2020-01-29 00:53:06 GMT 41.462814 -87.377075 10,850 323 318 0
2020-01-29 00:53:03 GMT 41.459885 -87.374077 10,850 323 318 0
2020-01-29 00:52:59 GMT 41.451370 -87.365387 10,850 323 318 0
2020-01-29 00:52:56 GMT 41.451370 -87.365387 10,850 323 318 0
2020-01-29 00:52:53 GMT 41.447506 -87.361427 10,850 323 318 0
2020-01-29 00:52:48 GMT 41.441780 -87.355614 10,850 323 318 0
2020-01-29 00:52:45 GMT 41.439358 -87.353127 10,850 323 318 0
2020-01-29 00:52:42 GMT 41.435726 -87.349419 10,850 323 317 0
2020-01-29 00:52:38 GMT 41.429535 -87.343117 10,850 323 317 0
2020-01-29 00:52:35 GMT 41.427200 -87.340744 10,850 323 317 0
2020-01-29 00:52:32 GMT 41.424271 -87.337753 10,850 323 317 0
2020-01-29 00:52:29 GMT 41.420883 -87.334320 10,850 323 317 0
2020-01-29 00:52:26 GMT 41.412460 -87.325768 10,850 323 317 0
2020-01-29 00:52:23 GMT 41.412460 -87.325768 10,850 323 317 0
2020-01-29 00:52:18 GMT 41.406647 -87.319832 10,850 323 317 0
2020-01-29 00:52:15 GMT 41.399918 -87.312904 10,850 323 317 0
2020-01-29 00:52:12 GMT 41.399918 -87.312904 10,850 323 317 0
2020-01-29 00:52:05 GMT 41.387970 -87.300674 10,850 323 315 0
2020-01-29 00:52:01 GMT 41.387970 -87.300674 10,850 323 316 0
2020-01-29 00:51:56 GMT 41.378376 -87.290810 10,850 323 316 0
2020-01-29 00:51:53 GMT 41.378376 -87.290810 10,850 323 315 0
2020-01-29 00:51:47 GMT 41.370274 -87.282440 10,850 323 315 0
2020-01-29 00:51:44 GMT 41.367390 -87.279510 10,850 323 315 0
2020-01-29 00:51:41 GMT 41.364502 -87.276512 10,850 323 315 0
2020-01-29 00:51:36 GMT 41.354553 -87.266357 10,850 323 315 0
2020-01-29 00:51:30 GMT 41.352352 -87.264091 10,850 323 315 0
2020-01-29 00:51:24 GMT 41.345490 -87.257141 10,850 323 315 0
2020-01-29 00:51:21 GMT 41.340408 -87.251892 10,850 323 315 0
2020-01-29 00:51:16 GMT 41.334896 -87.246239 10,850 323 315 0
2020-01-29 00:51:12 GMT 41.328194 -87.239372 10,850 323 315 0
2020-01-29 00:51:04 GMT 41.321869 -87.232849 10,850 323 315 0
2020-01-29 00:51:00 GMT 41.316647 -87.227516 10,850 323 315 0
2020-01-29 00:50:53 GMT 41.308228 -87.218872 10,850 323 315 0
2020-01-29 00:50:49 GMT 41.304153 -87.214783 10,850 323 315 0
2020-01-29 00:50:44 GMT 41.297699 -87.208191 10,850 323 315 0
2020-01-29 00:50:41 GMT 41.295372 -87.205788 10,850 323 315 0
2020-01-29 00:50:38 GMT 41.291786 -87.202171 10,850 323 315 0
2020-01-29 00:50:32 GMT 41.283783 -87.194031 10,850 323 315 0
2020-01-29 00:50:29 GMT 41.280338 -87.190498 10,850 323 315 0
2020-01-29 00:50:21 GMT 41.271629 -87.181694 10,850 323 315 0
2020-01-29 00:50:17 GMT 41.267212 -87.177246 10,850 323 315 0
2020-01-29 00:50:14 GMT 41.262833 -87.172768 10,850 323 315 0
2020-01-29 00:50:11 GMT 41.260300 -87.170166 10,850 323 315 0
2020-01-29 00:50:08 GMT 41.256683 -87.166565 10,850 323 314 0
2020-01-29 00:50:02 GMT 41.249611 -87.159348 10,850 323 314 0
2020-01-29 00:49:58 GMT 41.244186 -87.153870 10,850 323 315 0
2020-01-29 00:49:50 GMT 41.234577 -87.144119 10,850 323 314 0
2020-01-29 00:49:47 GMT 41.232388 -87.141869 10,850 323 314 0
2020-01-29 00:49:42 GMT 41.226753 -87.136124 10,850 323 314 0
2020-01-29 00:49:39 GMT 41.223267 -87.132629 10,850 323 313 0
2020-01-29 00:49:36 GMT 41.219101 -87.128418 10,850 323 313 0
2020-01-29 00:49:30 GMT 41.212189 -87.121399 10,850 323 313 0
2020-01-29 00:49:25 GMT 41.207703 -87.116821 10,850 323 314 0
2020-01-29 00:49:22 GMT 41.199104 -87.107971 10,850 322 313 0
2020-01-29 00:49:18 GMT 41.199104 -87.107971 10,850 322 313 0
2020-01-29 00:49:15 GMT 41.194542 -87.103233 10,850 322 313 0
2020-01-29 00:49:10 GMT 41.190628 -87.099243 10,850 322 313 0
2020-01-29 00:49:07 GMT 41.186646 -87.095093 10,850 322 313 0
2020-01-29 00:49:04 GMT 41.182159 -87.090454 10,850 322 313 0
2020-01-29 00:48:58 GMT 41.176571 -87.084686 10,850 323 312 0
2020-01-29 00:48:55 GMT 41.172226 -87.080200 10,850 323 313 0
2020-01-29 00:48:51 GMT 41.167648 -87.075562 10,850 323 313 0
2020-01-29 00:48:45 GMT 41.161011 -87.068787 10,850 323 313 0
2020-01-29 00:48:40 GMT 41.155903 -87.063652 10,850 323 314 0
2020-01-29 00:48:35 GMT 41.148422 -87.056091 10,850 323 315 64
2020-01-29 00:48:29 GMT 41.142609 -87.050232 10,850 323 315 0
2020-01-29 00:48:25 GMT 41.137848 -87.045410 10,850 323 316 64
2020-01-29 00:48:20 GMT 41.131416 -87.038994 10,825 323 317 64
2020-01-29 00:48:17 GMT 41.125084 -87.032631 10,850 323 317 -320
2020-01-29 00:48:14 GMT 41.125084 -87.032631 10,850 323 317 -512
2020-01-29 00:48:11 GMT 41.121597 -87.029114 11,025 324 310 -640
2020-01-29 00:48:08 GMT 41.117123 -87.024643 10,900 323 316 -640
2020-01-29 00:48:05 GMT 41.114594 -87.022095 10,925 323 316 -640
2020-01-29 00:47:59 GMT 41.107590 -87.015015 11,000 323 315 -640
2020-01-29 00:47:55 GMT 41.099621 -87.006973 11,050 323 313 -640
2020-01-29 00:47:52 GMT 41.099621 -87.006973 11,075 323 314 -640
2020-01-29 00:47:49 GMT 41.095459 -87.002747 11,125 323 313 -640
2020-01-29 00:47:46 GMT 41.088776 -86.996033 11,175 323 312 -640
2020-01-29 00:47:42 GMT 41.088776 -86.996033 11,175 323 312 -640
2020-01-29 00:47:38 GMT 41.080208 -86.987495 11,250 324 311 -640
2020-01-29 00:47:35 GMT 41.080208 -86.987495 11,275 323 310 -640
2020-01-29 00:47:31 GMT 41.076324 -86.983643 11,275 324 310 -640
2020-01-29 00:47:27 GMT 41.071735 -86.979073 11,325 324 310 -640
2020-01-29 00:47:21 GMT 41.064148 -86.971581 11,400 323 308 -640
2020-01-29 00:47:17 GMT 41.055862 -86.963280 11,500 323 306 -640
2020-01-29 00:47:11 GMT 41.052704 -86.960083 11,500 323 306 -640
2020-01-29 00:47:06 GMT 41.047485 -86.954895 11,550 323 306 -704
2020-01-29 00:47:03 GMT 41.044235 -86.951599 11,700 323 303 -704
2020-01-29 00:47:00 GMT 41.040733 -86.948051 11,625 323 305 -704
2020-01-29 00:46:55 GMT 41.033340 -86.940613 11,725 323 303 -704
2020-01-29 00:46:50 GMT 41.029095 -86.936310 11,725 323 303 -704
2020-01-29 00:46:46 GMT 41.024185 -86.931396 11,800 323 301 -512
2020-01-29 00:46:40 GMT 41.017876 -86.924950 11,850 323 302 -128
2020-01-29 00:46:37 GMT 41.011265 -86.918144 11,850 323 303 0
2020-01-29 00:46:29 GMT 41.006149 -86.912964 11,850 323 303 0
2020-01-29 00:46:24 GMT 40.998917 -86.905640 11,850 323 305 0
2020-01-29 00:46:18 GMT 40.993996 -86.900604 11,850 323 305 0
2020-01-29 00:46:15 GMT 40.990585 -86.897156 11,850 323 307 0
2020-01-29 00:46:11 GMT 40.984638 -86.891121 11,850 323 308 0
2020-01-29 00:46:08 GMT 40.982357 -86.888809 11,850 323 309 0
2020-01-29 00:46:05 GMT 40.978630 -86.885002 11,850 323 310 0
2020-01-29 00:46:00 GMT 40.973186 -86.879448 11,850 323 311 64
2020-01-29 00:45:57 GMT 40.969879 -86.876015 11,850 323 312 64
2020-01-29 00:45:53 GMT 40.963688 -86.869705 11,825 323 314 -64
2020-01-29 00:45:50 GMT 40.961517 -86.867493 11,850 323 315 -192
2020-01-29 00:45:47 GMT 40.958633 -86.864502 11,850 323 314 -384
2020-01-29 00:45:44 GMT 40.954834 -86.860657 11,875 323 314 -960
2020-01-29 00:45:40 GMT 40.949615 -86.855408 11,975 323 313 -960
2020-01-29 00:45:37 GMT 40.946732 -86.852478 12,000 323 313 -960
2020-01-29 00:45:33 GMT 40.942474 -86.848145 12,150 323 312 -960
2020-01-29 00:45:27 GMT 40.936020 -86.841614 12,125 323 312 -960
2020-01-29 00:45:24 GMT 40.931473 -86.836998 12,200 323 311 -960
2020-01-29 00:45:21 GMT 40.927238 -86.832695 12,300 323 311 -960
2020-01-29 00:45:17 GMT 40.924583 -86.830070 12,300 323 311 -896
2020-01-29 00:45:13 GMT 40.919323 -86.824760 12,375 323 310 -960
2020-01-29 00:45:08 GMT 40.912857 -86.818176 12,450 323 308 -960
2020-01-29 00:44:59 GMT 40.903450 -86.808662 12,575 323 307 -896
2020-01-29 00:44:56 GMT 40.900040 -86.805298 12,625 323 306 -896
2020-01-29 00:44:52 GMT 40.894699 -86.799919 12,700 323 306 -896
2020-01-29 00:44:46 GMT 40.888832 -86.794113 12,775 323 305 -896
2020-01-29 00:44:41 GMT 40.883194 -86.788452 12,850 324 303 -896
2020-01-29 00:44:35 GMT 40.876648 -86.782043 12,925 324 303 -896
2020-01-29 00:44:31 GMT 40.872070 -86.777466 13,000 324 302 -896
2020-01-29 00:44:25 GMT 40.865463 -86.770958 13,100 324 301 -896
2020-01-29 00:44:22 GMT 40.860352 -86.765869 13,175 324 300 -896
2020-01-29 00:44:16 GMT 40.853668 -86.759338 13,250 324 298 -896
2020-01-29 00:44:13 GMT 40.848240 -86.753975 13,325 324 297 -896
2020-01-29 00:44:07 GMT 40.843956 -86.749672 13,375 323 297 -896
2020-01-29 00:44:04 GMT 40.842178 -86.747986 13,400 324 296 -896
2020-01-29 00:44:00 GMT 40.831146 -86.737000 13,700 324 292 -960
2020-01-29 00:43:54 GMT 40.831146 -86.737000 13,675 323 292 -960
2020-01-29 00:43:51 GMT 40.826591 -86.732445 13,625 323 292 -960
2020-01-29 00:43:45 GMT 40.820122 -86.726013 13,800 323 289 -896
2020-01-29 00:43:40 GMT 40.815674 -86.721558 13,775 323 288 -832
2020-01-29 00:43:36 GMT 40.810593 -86.716370 13,825 323 288 -320
2020-01-29 00:43:31 GMT 40.805420 -86.711121 13,850 323 290 0
2020-01-29 00:43:27 GMT 40.802666 -86.708282 13,850 322 290 0
2020-01-29 00:43:24 GMT 40.798939 -86.704475 13,850 322 290 0
2020-01-29 00:43:20 GMT 40.794388 -86.699829 13,850 323 291 0
2020-01-29 00:43:17 GMT 40.791492 -86.696861 13,850 323 294 0
2020-01-29 00:43:14 GMT 40.788418 -86.693680 13,850 323 294 0
2020-01-29 00:43:09 GMT 40.782833 -86.687996 13,850 323 294 0
2020-01-29 00:43:04 GMT 40.777527 -86.682625 13,850 323 295 0
2020-01-29 00:42:59 GMT 40.770676 -86.675659 13,850 323 297 0
2020-01-29 00:42:56 GMT 40.768913 -86.673950 13,850 323 297 0
2020-01-29 00:42:52 GMT 40.764866 -86.669891 13,850 324 299 0
2020-01-29 00:42:48 GMT 40.759964 -86.665039 13,850 324 302 0
2020-01-29 00:42:43 GMT 40.754528 -86.659660 13,850 324 302 -64
2020-01-29 00:42:37 GMT 40.748013 -86.653290 13,850 324 304 64
2020-01-29 00:42:33 GMT 40.742657 -86.648109 13,850 324 306 64
2020-01-29 00:42:27 GMT 40.736282 -86.641930 13,850 324 307 0
2020-01-29 00:42:23 GMT 40.731354 -86.637146 13,850 324 308 -320
2020-01-29 00:42:16 GMT 40.723938 -86.630066 14,025 325 307 -1024
2020-01-29 00:42:12 GMT 40.718628 -86.625000 14,125 325 307 -1024
2020-01-29 00:42:08 GMT 40.714828 -86.621338 14,050 325 306 -1024
2020-01-29 00:42:01 GMT 40.706818 -86.613708 14,225 324 303 -960
2020-01-29 00:41:58 GMT 40.701736 -86.608765 14,350 323 302 -960
2020-01-29 00:41:55 GMT 40.700043 -86.607117 14,275 324 302 -960
2020-01-29 00:41:51 GMT 40.694550 -86.601685 14,350 323 300 -960
2020-01-29 00:41:46 GMT 40.688889 -86.596046 14,425 324 300 -1024
2020-01-29 00:41:41 GMT 40.683334 -86.590576 14,500 324 298 -960
2020-01-29 00:41:36 GMT 40.670734 -86.578011 15,000 322 289 -1024
2020-01-29 00:41:30 GMT 40.670734 -86.578011 14,700 323 295 -1024
2020-01-29 00:41:27 GMT 40.667801 -86.575073 14,750 323 294 -1024
2020-01-29 00:41:19 GMT 40.659843 -86.566963 14,850 323 292 -1024
2020-01-29 00:41:15 GMT 40.654533 -86.561531 14,950 322 288 -1024
2020-01-29 00:41:11 GMT 40.650284 -86.557190 15,050 322 288 -1024
2020-01-29 00:41:05 GMT 40.645706 -86.552368 15,175 322 286 -1024
2020-01-29 00:40:59 GMT 40.635132 -86.541565 15,225 323 284 -1088
2020-01-29 00:40:56 GMT 40.635132 -86.541565 15,375 323 284 -1088
2020-01-29 00:40:49 GMT 40.627861 -86.534378 15,400 323 285 -1152
2020-01-29 00:40:46 GMT 40.625023 -86.531502 15,425 323 285 -1152
2020-01-29 00:40:43 GMT 40.622414 -86.528885 15,475 323 285 -1152
2020-01-29 00:40:38 GMT 40.616920 -86.523453 15,575 324 286 -1152
2020-01-29 00:40:35 GMT 40.613297 -86.519897 15,700 323 287 -1152
2020-01-29 00:40:28 GMT 40.605469 -86.512146 15,800 323 287 -1152
2020-01-29 00:40:25 GMT 40.602489 -86.509216 15,900 323 288 -1152
2020-01-29 00:40:17 GMT 40.590481 -86.497299 16,075 323 288 -1088
2020-01-29 00:40:10 GMT 40.587173 -86.494049 16,075 323 288 -1088
2020-01-29 00:40:07 GMT 40.583633 -86.490540 16,150 323 289 -1088
2020-01-29 00:40:04 GMT 40.580338 -86.487244 16,300 323 290 -1088
2020-01-29 00:40:00 GMT 40.576511 -86.483376 16,300 323 290 -1088
2020-01-29 00:39:57 GMT 40.572235 -86.479126 16,375 323 291 -1088
2020-01-29 00:39:54 GMT 40.569534 -86.476440 16,475 323 291 -1152
2020-01-29 00:39:48 GMT 40.559986 -86.466896 16,600 323 291 -1152
2020-01-29 00:39:45 GMT 40.557705 -86.464653 16,625 323 292 -1152
2020-01-29 00:39:39 GMT 40.552963 -86.459900 16,750 323 293 -1152
2020-01-29 00:39:35 GMT 40.549850 -86.456787 16,775 323 294 -1152
2020-01-29 00:39:32 GMT 40.546921 -86.453857 16,825 323 294 -1152
2020-01-29 00:39:29 GMT 40.543121 -86.450073 16,900 323 294 -1152
2020-01-29 00:39:25 GMT 40.535797 -86.442688 17,025 323 295 -1152
2020-01-29 00:39:15 GMT 40.527832 -86.434692 17,150 323 296 -1152
2020-01-29 00:39:11 GMT 40.518276 -86.425011 17,300 323 297 -1152
2020-01-29 00:39:07 GMT 40.518276 -86.425011 17,350 323 298 -1152
2020-01-29 00:39:01 GMT 40.512817 -86.419495 17,425 323 298 -1152
2020-01-29 00:38:54 GMT 40.504498 -86.411026 17,600 323 300 -1152
2020-01-29 00:38:51 GMT 40.501099 -86.407593 17,625 323 300 -1152
2020-01-29 00:38:44 GMT 40.492813 -86.399292 17,775 323 301 -1152
2020-01-29 00:38:41 GMT 40.489040 -86.395546 17,850 323 301 -1152
2020-01-29 00:38:36 GMT 40.484116 -86.390686 18,050 323 303 -1152
2020-01-29 00:38:33 GMT 40.480801 -86.387306 17,975 323 303 -1152
2020-01-29 00:38:29 GMT 40.476791 -86.383301 18,050 323 303 -1152
2020-01-29 00:38:25 GMT 40.472305 -86.378845 18,175 323 304 -1152
2020-01-29 00:38:21 GMT 40.467163 -86.373634 18,225 323 305 -1152
2020-01-29 00:38:12 GMT 40.457474 -86.364014 18,375 323 307 -1152
2020-01-29 00:38:07 GMT 40.453262 -86.359863 18,450 323 308 -1152
2020-01-29 00:38:04 GMT 40.447586 -86.354187 18,575 324 309 -1088
2020-01-29 00:38:00 GMT 40.444016 -86.350708 18,600 324 309 -1088
2020-01-29 00:37:57 GMT 40.441727 -86.348450 18,625 324 309 -1088
2020-01-29 00:37:53 GMT 40.431931 -86.338989 18,775 324 311 -1088
2020-01-29 00:37:50 GMT 40.431931 -86.338989 18,800 324 311 -1088
2020-01-29 00:37:47 GMT 40.428478 -86.335625 18,850 325 311 -1088
2020-01-29 00:37:42 GMT 40.424240 -86.331665 18,900 325 312 -1088
2020-01-29 00:37:39 GMT 40.416504 -86.324341 19,000 325 313 -1152
2020-01-29 00:37:36 GMT 40.416504 -86.324341 19,025 325 313 -1152
2020-01-29 00:37:32 GMT 40.407623 -86.316040 19,175 324 316 -1152
2020-01-29 00:37:28 GMT 40.403385 -86.312088 19,200 325 315 -1088
2020-01-29 00:37:25 GMT 40.403385 -86.312088 19,250 325 315 -1152
2020-01-29 00:37:22 GMT 40.395100 -86.304161 19,375 324 316 -1024
2020-01-29 00:37:15 GMT 40.391830 -86.300964 19,425 324 316 0
2020-01-29 00:37:06 GMT 40.381989 -86.291321 19,575 324 316 -1088
2020-01-29 00:37:03 GMT 40.377045 -86.286499 19,650 324 316 -1088
2020-01-29 00:36:57 GMT 40.371220 -86.280754 19,725 324 315 -1024
2020-01-29 00:36:54 GMT 40.366882 -86.276489 19,800 324 315 -1088
2020-01-29 00:36:51 GMT 40.362839 -86.272514 19,850 324 315 -1024
2020-01-29 00:36:48 GMT 40.359192 -86.268982 19,925 324 315 -1024
2020-01-29 00:36:42 GMT 40.352924 -86.262840 20,000 324 313 -1024
2020-01-29 00:36:37 GMT 40.347103 -86.257095 20,100 324 313 -1024
2020-01-29 00:36:32 GMT 40.341110 -86.251221 20,175 324 312 -1024
2020-01-29 00:36:26 GMT 40.335297 -86.245544 21,600 324 305 -960
2020-01-29 00:36:20 GMT 40.328156 -86.238525 20,375 324 311 -1024
2020-01-29 00:36:17 GMT 40.323177 -86.233688 20,450 324 310 -1024
2020-01-29 00:36:12 GMT 40.317673 -86.228271 20,550 324 310 -1024
2020-01-29 00:36:09 GMT 40.314789 -86.225464 20,600 324 309 -960
2020-01-29 00:36:06 GMT 40.311584 -86.222328 20,625 324 309 -960
2020-01-29 00:36:01 GMT 40.305161 -86.216087 20,725 324 309 -960
2020-01-29 00:35:56 GMT 40.299408 -86.210510 21,600 324 305 -960
2020-01-29 00:35:49 GMT 40.287277 -86.198669 20,925 324 308 -960
2020-01-29 00:35:45 GMT 40.287277 -86.198669 20,975 324 308 -960
2020-01-29 00:35:39 GMT 40.281006 -86.192566 21,050 324 307 -960
2020-01-29 00:35:36 GMT 40.276245 -86.187927 21,150 324 306 -960
2020-01-29 00:35:33 GMT 40.274529 -86.186249 21,150 324 306 -960
2020-01-29 00:35:26 GMT 40.266102 -86.178070 21,275 324 305 -960
2020-01-29 00:35:23 GMT 40.263264 -86.175262 21,300 324 305 -960
2020-01-29 00:35:18 GMT 40.255600 -86.167786 21,400 324 305 -960
2020-01-29 00:35:13 GMT 40.251755 -86.164001 21,475 324 305 -960
2020-01-29 00:35:08 GMT 40.245438 -86.157837 21,550 324 303 -960
2020-01-29 00:35:04 GMT 40.240406 -86.152847 21,625 324 303 -960
2020-01-29 00:34:57 GMT 40.233006 -86.145607 21,700 324 302 -832
2020-01-29 00:34:52 GMT 40.227371 -86.140114 21,800 324 302 -768
2020-01-29 00:34:46 GMT 40.220535 -86.133423 21,850 324 303 -768
2020-01-29 00:34:43 GMT 40.216709 -86.129692 21,900 324 303 -768
2020-01-29 00:34:36 GMT 40.209541 -86.122704 22,000 324 302 -768
2020-01-29 00:34:32 GMT 40.204933 -86.118271 22,050 324 302 -768
2020-01-29 00:34:26 GMT 40.197372 -86.110962 22,100 324 303 -768
2020-01-29 00:34:21 GMT 40.193069 -86.106873 22,175 324 303 -768
2020-01-29 00:34:15 GMT 40.181145 -86.095360 22,250 324 302 -768
2020-01-29 00:34:12 GMT 40.181145 -86.095360 22,300 324 302 -768
2020-01-29 00:34:06 GMT 40.176304 -86.090675 22,400 324 302 -768
2020-01-29 00:34:03 GMT 40.172928 -86.087463 22,400 324 302 -768
2020-01-29 00:34:00 GMT 40.169556 -86.084183 22,450 324 302 -768
2020-01-29 00:33:57 GMT 40.164917 -86.079712 22,500 324 302 -768
2020-01-29 00:33:54 GMT 40.157867 -86.072884 22,700 323 302 -768
2020-01-29 00:33:51 GMT 40.157867 -86.072884 22,575 324 302 -768
2020-01-29 00:33:45 GMT 40.151596 -86.066772 22,625 324 301 -768
2020-01-29 00:33:42 GMT 40.147934 -86.063110 22,675 323 302 -768
2020-01-29 00:33:39 GMT 40.145599 -86.060852 22,725 323 302 -768
2020-01-29 00:33:34 GMT 40.140133 -86.055473 22,825 323 301 -768
2020-01-29 00:33:31 GMT 40.135990 -86.051414 22,825 323 301 -768
2020-01-29 00:33:26 GMT 40.130356 -86.045776 22,900 323 301 -768
2020-01-29 00:33:22 GMT 40.126007 -86.041504 22,950 323 301 -832
2020-01-29 00:33:19 GMT 40.122211 -86.037804 23,000 323 301 -832
2020-01-29 00:33:14 GMT 40.116898 -86.032532 23,050 323 301 -832
2020-01-29 00:33:11 GMT 40.110443 -86.026184 23,150 323 302 -832
2020-01-29 00:33:08 GMT 40.107079 -86.022888 23,175 323 302 -832
2020-01-29 00:33:04 GMT 40.101425 -86.017334 23,275 323 302 -832
2020-01-29 00:33:00 GMT 40.101425 -86.017334 23,275 323 302 -832
2020-01-29 00:32:54 GMT 40.090164 -86.006226 23,375 323 302 -768
2020-01-29 00:32:49 GMT 40.090164 -86.006226 23,375 323 302 -768
2020-01-29 00:32:46 GMT 40.087143 -86.003235 23,425 323 302 -768
2020-01-29 00:32:42 GMT 40.081558 -85.997742 23,500 324 302 -832
2020-01-29 00:32:39 GMT 40.077850 -85.994141 23,525 324 302 -832
2020-01-29 00:32:36 GMT 40.075287 -85.991577 23,575 324 303 -832
2020-01-29 00:32:33 GMT 40.072678 -85.989052 23,600 323 312 -896
2020-01-29 00:32:27 GMT 40.065399 -85.981934 23,675 324 304 -768
2020-01-29 00:32:24 GMT 40.060993 -85.977631 24,075 323 309 -832
2020-01-29 00:32:18 GMT 40.054665 -85.971390 23,800 323 305 -832
2020-01-29 00:32:15 GMT 40.051849 -85.968628 23,850 323 307 -832
2020-01-29 00:32:12 GMT 40.049011 -85.965881 23,875 323 307 -832
2020-01-29 00:32:07 GMT 40.042786 -85.959717 23,925 323 307 -832
2020-01-29 00:32:02 GMT 40.037338 -85.954407 24,000 324 307 -832
2020-01-29 00:31:57 GMT 40.030411 -85.947540 24,100 324 309 -832
2020-01-29 00:31:51 GMT 40.023880 -85.941223 24,175 324 309 -832
2020-01-29 00:31:46 GMT 40.018864 -85.936249 24,250 323 310 -896
2020-01-29 00:31:42 GMT 40.014267 -85.931702 24,275 323 311 -896
2020-01-29 00:31:36 GMT 40.006577 -85.924133 24,425 323 313 -896
2020-01-29 00:31:33 GMT 40.003128 -85.920700 24,450 323 313 -896
2020-01-29 00:31:28 GMT 39.997215 -85.914894 24,500 324 315 -896
2020-01-29 00:31:25 GMT 39.994858 -85.912659 24,575 324 315 -896
2020-01-29 00:31:21 GMT 39.988815 -85.906677 24,625 324 316 -896
2020-01-29 00:31:18 GMT 39.986233 -85.904221 24,650 324 318 -896
2020-01-29 00:31:14 GMT 39.981491 -85.899597 24,725 324 318 -896
2020-01-29 00:31:11 GMT 39.977989 -85.896172 24,950 324 321 -896
2020-01-29 00:31:07 GMT 39.971802 -85.890236 24,850 324 321 -896
2020-01-29 00:31:04 GMT 39.968811 -85.887329 24,875 324 321 -896
2020-01-29 00:31:01 GMT 39.965149 -85.883789 24,925 324 321 -896
2020-01-29 00:30:55 GMT 39.958530 -85.877441 24,975 324 323 -896
2020-01-29 00:30:52 GMT 39.954391 -85.873535 25,050 324 324 -896
2020-01-29 00:30:44 GMT 39.944778 -85.864441 25,175 324 327 -896
2020-01-29 00:30:39 GMT 39.938423 -85.858467 25,200 324 327 -896
2020-01-29 00:30:36 GMT 39.935116 -85.855286 25,300 324 329 -896
2020-01-29 00:30:30 GMT 39.922806 -85.843506 25,425 324 333 -832
2020-01-29 00:30:26 GMT 39.922806 -85.843506 25,450 324 335 -832
2020-01-29 00:30:23 GMT 39.916309 -85.837158 25,975 324 333 -832
2020-01-29 00:30:15 GMT 39.909885 -85.830933 25,850 324 335 -832
2020-01-29 00:30:12 GMT 39.906143 -85.827286 25,625 324 334 -832
2020-01-29 00:30:08 GMT 39.901691 -85.822998 25,650 324 334 -832
2020-01-29 00:30:02 GMT 39.892754 -85.814331 25,775 324 335 -832
2020-01-29 00:29:57 GMT 39.887772 -85.809448 25,800 324 336 -832
2020-01-29 00:29:54 GMT 39.884190 -85.805969 25,875 324 337 -768
2020-01-29 00:29:51 GMT 39.879913 -85.801849 25,975 324 338 -832
2020-01-29 00:29:48 GMT 39.876183 -85.798218 25,950 324 337 -768
2020-01-29 00:29:44 GMT 39.870548 -85.792725 26,000 324 337 -768
2020-01-29 00:29:40 GMT 39.867325 -85.789612 26,025 324 338 -768
2020-01-29 00:29:37 GMT 39.863434 -85.785851 26,200 324 340 -768
2020-01-29 00:29:31 GMT 39.854233 -85.777008 26,175 324 339 -768
2020-01-29 00:29:28 GMT 39.849838 -85.772774 26,225 324 339 -768
2020-01-29 00:29:23 GMT 39.844292 -85.767456 26,275 324 339 -768
2020-01-29 00:29:20 GMT 39.841129 -85.764465 26,325 324 339 -768
2020-01-29 00:29:17 GMT 39.837448 -85.760986 26,350 324 340 -768
2020-01-29 00:29:13 GMT 39.831211 -85.755066 26,425 324 340 -768
2020-01-29 00:29:10 GMT 39.827534 -85.751587 26,475 325 340 -768
2020-01-29 00:29:07 GMT 39.824322 -85.748596 26,475 325 340 -768
2020-01-29 00:28:59 GMT 39.814266 -85.739197 26,650 325 341 -768
2020-01-29 00:28:56 GMT 39.810917 -85.736084 26,700 324 341 -768
2020-01-29 00:28:52 GMT 39.804932 -85.730438 26,700 325 341 -768
2020-01-29 00:28:49 GMT 39.800674 -85.726494 26,750 325 341 -832
2020-01-29 00:28:46 GMT 39.797745 -85.723747 26,750 325 341 -832
2020-01-29 00:28:38 GMT 39.786758 -85.713425 26,875 324 341 -768
2020-01-29 00:28:35 GMT 39.783554 -85.710434 26,900 324 341 -768
2020-01-29 00:28:31 GMT 39.777584 -85.704773 26,950 324 339 -768
2020-01-29 00:28:28 GMT 39.773907 -85.701233 27,000 324 339 -768
2020-01-29 00:28:25 GMT 39.770096 -85.697601 27,025 324 339 -768
2020-01-29 00:28:20 GMT 39.764782 -85.692566 27,175 324 339 -768
2020-01-29 00:28:16 GMT 39.756546 -85.684700 27,150 324 339 -704
2020-01-29 00:28:13 GMT 39.756546 -85.684700 27,175 324 338 -704
2020-01-29 00:28:10 GMT 39.751373 -85.679810 27,225 324 337 -704
2020-01-29 00:28:06 GMT 39.743088 -85.671875 27,300 324 336 -704
2020-01-29 00:28:03 GMT 39.743088 -85.671875 27,300 324 336 -704
2020-01-29 00:27:56 GMT 39.733978 -85.663208 27,525 324 331 -768
2020-01-29 00:27:53 GMT 39.729774 -85.659119 27,425 324 334 -704
2020-01-29 00:27:49 GMT 39.724888 -85.654541 27,500 324 331 -768
2020-01-29 00:27:45 GMT 39.720837 -85.650635 27,525 324 331 -768
2020-01-29 00:27:42 GMT 39.712086 -85.642273 27,575 324 330 -768
2020-01-29 00:27:38 GMT 39.712086 -85.642273 27,650 324 329 -768
2020-01-29 00:27:35 GMT 39.704590 -85.635071 27,650 324 328 -768
2020-01-29 00:27:32 GMT 39.704590 -85.635071 27,675 324 328 -768
2020-01-29 00:27:28 GMT 39.699142 -85.629829 27,725 324 324 -640
2020-01-29 00:27:25 GMT 39.695343 -85.626244 28,000 324 324 0
2020-01-29 00:27:21 GMT 39.687836 -85.619026 27,850 324 324 -576
2020-01-29 00:27:14 GMT 39.679413 -85.610962 28,000 324 321 -192
2020-01-29 00:27:11 GMT 39.674149 -85.605888 27,950 324 322 -576
2020-01-29 00:27:07 GMT 39.674149 -85.605888 28,000 324 322 -512
2020-01-29 00:27:04 GMT 39.670670 -85.602547 28,000 324 322 0
2020-01-29 00:27:01 GMT 39.666836 -85.598877 28,000 324 321 -128
2020-01-29 00:26:56 GMT 39.661716 -85.593933 28,000 324 322 0
2020-01-29 00:26:51 GMT 39.654648 -85.587196 28,000 324 323 0
2020-01-29 00:26:47 GMT 39.647564 -85.580444 28,000 324 327 0
2020-01-29 00:26:40 GMT 39.641647 -85.574837 28,000 324 324 0
2020-01-29 00:26:35 GMT 39.636703 -85.570122 28,000 324 324 0
2020-01-29 00:26:31 GMT 39.631348 -85.565048 28,000 324 326 0
2020-01-29 00:26:27 GMT 39.625900 -85.559914 28,000 324 325 0
2020-01-29 00:26:19 GMT 39.616512 -85.551086 28,000 324 326 0
2020-01-29 00:26:15 GMT 39.612743 -85.547546 28,000 324 338 0
2020-01-29 00:26:12 GMT 39.606720 -85.541878 28,000 325 327 0
2020-01-29 00:26:08 GMT 39.601959 -85.537399 28,000 324 327 0
2020-01-29 00:26:04 GMT 39.592541 -85.528442 28,000 324 328 64
2020-01-29 00:25:59 GMT 39.592541 -85.528442 28,000 324 328 64
2020-01-29 00:25:55 GMT 39.587139 -85.523315 28,000 324 329 0
2020-01-29 00:25:51 GMT 39.578060 -85.514648 28,000 324 330 0
2020-01-29 00:25:47 GMT 39.578060 -85.514648 28,000 324 331 0
2020-01-29 00:25:44 GMT 39.574860 -85.511604 28,000 324 331 0
2020-01-29 00:25:39 GMT 39.568100 -85.505127 28,000 324 331 0
2020-01-29 00:25:35 GMT 39.558460 -85.495972 28,000 324 332 64
2020-01-29 00:25:32 GMT 39.558460 -85.495972 28,000 324 332 0
2020-01-29 00:25:27 GMT 39.552383 -85.490173 28,000 324 334 0
2020-01-29 00:25:24 GMT 39.548641 -85.486633 28,000 324 338 0
2020-01-29 00:25:20 GMT 39.543518 -85.481812 28,000 324 335 0
2020-01-29 00:25:16 GMT 39.539375 -85.477905 28,000 324 336 0
2020-01-29 00:25:11 GMT 39.531967 -85.470886 28,000 324 338 0
2020-01-29 00:25:06 GMT 39.527298 -85.466469 28,000 324 338 0
2020-01-29 00:25:03 GMT 39.521484 -85.460915 28,000 324 341 0
2020-01-29 00:24:58 GMT 39.513290 -85.453033 28,000 324 341 0
2020-01-29 00:24:55 GMT 39.513290 -85.453033 28,000 324 341 0
2020-01-29 00:24:51 GMT 39.503811 -85.444031 28,000 324 344 0
2020-01-29 00:24:48 GMT 39.503811 -85.444031 28,000 324 344 64
2020-01-29 00:24:45 GMT 39.499340 -85.439758 28,000 324 345 64
2020-01-29 00:24:39 GMT 39.492371 -85.433212 27,975 324 346 64
2020-01-29 00:24:36 GMT 39.488251 -85.429268 27,975 324 348 0
2020-01-29 00:24:33 GMT 39.483047 -85.424316 27,975 324 349 0
2020-01-29 00:24:30 GMT 39.479141 -85.420609 27,975 324 350 0
2020-01-29 00:24:27 GMT 39.475067 -85.416794 27,975 324 352 0
2020-01-29 00:24:24 GMT 39.465218 -85.407471 28,000 324 353 0
2020-01-29 00:24:18 GMT 39.465218 -85.407471 28,000 325 359 0
2020-01-29 00:24:15 GMT 39.461636 -85.404114 28,000 325 359 0
2020-01-29 00:24:12 GMT 39.452278 -85.395386 28,000 324 358 -64
2020-01-29 00:24:06 GMT 39.448242 -85.391594 28,000 324 360 0
2020-01-29 00:24:01 GMT 39.441788 -85.385506 28,000 324 363 0
2020-01-29 00:23:55 GMT 39.434189 -85.378281 28,000 324 366 0
2020-01-29 00:23:52 GMT 39.428879 -85.373199 28,000 324 367 0
2020-01-29 00:23:46 GMT 39.421509 -85.366035 28,050 323 371 -192
2020-01-29 00:23:43 GMT 39.416851 -85.361511 28,025 323 372 -576
2020-01-29 00:23:40 GMT 39.407913 -85.352783 28,100 323 373 -1216
2020-01-29 00:23:36 GMT 39.407913 -85.352783 28,125 323 373 -1472
2020-01-29 00:23:32 GMT 39.402557 -85.347527 28,250 323 373 -1536
2020-01-29 00:23:29 GMT 39.398300 -85.343346 28,400 323 372 -1600
2020-01-29 00:23:24 GMT 39.390564 -85.335823 28,425 325 373 -1536
2020-01-29 00:23:19 GMT 39.384064 -85.329918 28,500 326 374 -1536
2020-01-29 00:23:13 GMT 39.375278 -85.322632 28,675 330 377 -1600
2020-01-29 00:23:10 GMT 39.370018 -85.318665 28,800 332 378 -1600
2020-01-29 00:23:07 GMT 39.366348 -85.316002 28,875 333 381 -1536
2020-01-29 00:23:04 GMT 39.360855 -85.312363 28,925 336 382 -1536
2020-01-29 00:23:01 GMT 39.355076 -85.308838 29,050 337 383 -1536
2020-01-29 00:22:58 GMT 39.352478 -85.307343 29,100 339 384 -1536
2020-01-29 00:22:53 GMT 39.338970 -85.300659 29,250 342 388 -1536
2020-01-29 00:22:50 GMT 39.335011 -85.299011 29,350 345 391 -1536
2020-01-29 00:22:42 GMT 39.316578 -85.292603 29,650 346 394 -1600
2020-01-29 00:22:37 GMT 39.316578 -85.292603 29,625 346 394 -1600
2020-01-29 00:22:33 GMT 39.299679 -85.286743 29,825 345 394 -1536
2020-01-29 00:22:29 GMT 39.299679 -85.286743 29,875 346 395 -1600
2020-01-29 00:22:26 GMT 39.297909 -85.286133 29,900 346 395 -1600
2020-01-29 00:22:21 GMT 39.285736 -85.281906 30,100 346 396 -1600
2020-01-29 00:22:17 GMT 39.279335 -85.279785 30,175 346 396 -1600
2020-01-29 00:22:13 GMT 39.274750 -85.278206 30,250 346 397 -1600
2020-01-29 00:22:10 GMT 39.266190 -85.275398 30,375 347 397 -1600
2020-01-29 00:22:04 GMT 39.257595 -85.272705 30,500 347 398 -1600
2020-01-29 00:22:01 GMT 39.251682 -85.270874 30,600 347 399 -1600
2020-01-29 00:21:55 GMT 39.241837 -85.267761 30,750 347 400 -1600
2020-01-29 00:21:51 GMT 39.235519 -85.265846 30,850 347 401 -1536
2020-01-29 00:21:48 GMT 39.227921 -85.263519 31,025 347 402 -1600
2020-01-29 00:21:43 GMT 39.219563 -85.261047 31,075 347 411 -1344
2020-01-29 00:21:40 GMT 39.213913 -85.259338 31,175 347 404 -1536
2020-01-29 00:21:37 GMT 39.207180 -85.257324 31,250 347 405 -1536
2020-01-29 00:21:33 GMT 39.199871 -85.255066 31,350 347 406 -1472
2020-01-29 00:21:29 GMT 39.192535 -85.252892 31,400 347 407 -1472
2020-01-29 00:21:24 GMT 39.183884 -85.250320 31,550 347 408 -1408
2020-01-29 00:21:20 GMT 39.176147 -85.247993 31,625 347 411 -1344
2020-01-29 00:21:17 GMT 39.164703 -85.244530 31,800 347 411 -1344
2020-01-29 00:21:14 GMT 39.164703 -85.244530 31,800 347 411 -1344
2020-01-29 00:21:11 GMT 39.160858 -85.243340 31,975 347 411 -1344
2020-01-29 00:21:08 GMT 39.154156 -85.241272 31,925 347 412 -1408
2020-01-29 00:21:05 GMT 39.149548 -85.239868 31,975 347 412 -1408
2020-01-29 00:21:02 GMT 39.136513 -85.235840 32,150 347 413 -1472
2020-01-29 00:20:58 GMT 39.136513 -85.235840 32,125 347 413 -1472
2020-01-29 00:20:54 GMT 39.128723 -85.233429 32,250 347 414 -1408
2020-01-29 00:20:51 GMT 39.124786 -85.232231 32,300 347 414 -1408
2020-01-29 00:20:47 GMT 39.115051 -85.229187 32,425 347 415 -1344
2020-01-29 00:20:42 GMT 39.101212 -85.224831 33,025 347 418 -1408
2020-01-29 00:20:35 GMT 39.094666 -85.222740 32,675 346 417 -1344
2020-01-29 00:20:32 GMT 39.086609 -85.220169 32,750 347 418 -1408
2020-01-29 00:20:29 GMT 39.070999 -85.215279 32,875 347 416 -1408
2020-01-29 00:20:23 GMT 39.064087 -85.213127 33,025 347 417 -1472
2020-01-29 00:20:19 GMT 39.064087 -85.213127 33,125 347 417 -1472
2020-01-29 00:20:15 GMT 39.051682 -85.209305 33,250 347 417 -1472
2020-01-29 00:20:09 GMT 39.045689 -85.207458 33,400 347 417 -1408
2020-01-29 00:20:04 GMT 39.028015 -85.202019 33,575 347 416 -1408
2020-01-29 00:20:01 GMT 39.028015 -85.202019 33,525 347 416 -1408
2020-01-29 00:19:58 GMT 39.023346 -85.200584 33,525 347 416 -1408
2020-01-29 00:19:55 GMT 39.017200 -85.198669 33,650 347 416 -1472
2020-01-29 00:19:52 GMT 39.012314 -85.197121 33,725 347 416 -1472
2020-01-29 00:19:49 GMT 39.007645 -85.195694 33,775 347 416 -1472
2020-01-29 00:19:46 GMT 39.003139 -85.194336 33,825 345 420 -1024
2020-01-29 00:19:43 GMT 38.996578 -85.192322 33,900 347 415 -1344
2020-01-29 00:19:40 GMT 38.983292 -85.188225 34,150 346 416 -960
2020-01-29 00:19:37 GMT 38.983292 -85.188225 34,050 347 416 -1024
2020-01-29 00:19:34 GMT 38.977890 -85.186554 34,100 347 415 -1024
2020-01-29 00:19:31 GMT 38.973392 -85.185181 34,150 347 416 -1024
2020-01-29 00:19:27 GMT 38.966309 -85.182915 34,300 346 416 -960
2020-01-29 00:19:24 GMT 38.960495 -85.181061 34,325 346 417 -960
2020-01-29 00:19:20 GMT 38.953217 -85.178673 34,325 346 417 -960
2020-01-29 00:19:17 GMT 38.946304 -85.176346 34,575 346 417 -960
2020-01-29 00:19:14 GMT 38.942532 -85.175110 34,450 346 417 -960
2020-01-29 00:19:11 GMT 38.929642 -85.170731 34,500 345 418 -960
2020-01-29 00:19:05 GMT 38.923676 -85.168640 34,575 345 418 -1024
2020-01-29 00:19:01 GMT 38.918793 -85.166908 34,625 345 419 -1024
2020-01-29 00:18:58 GMT 38.910233 -85.163864 34,700 345 419 -960
2020-01-29 00:18:55 GMT 38.906845 -85.162674 34,725 345 419 -960
2020-01-29 00:18:52 GMT 38.899376 -85.160034 34,800 345 419 -960
2020-01-29 00:18:46 GMT 38.890064 -85.156677 34,925 345 420 -1024
2020-01-29 00:18:43 GMT 38.882904 -85.154076 34,950 345 420 -1088
2020-01-29 00:18:40 GMT 38.879917 -85.153015 34,975 345 421 -1088
2020-01-29 00:18:36 GMT 38.870682 -85.149895 35,100 346 422 -1088
2020-01-29 00:18:33 GMT 38.864090 -85.147644 35,150 346 423 -1088
2020-01-29 00:18:29 GMT 38.856129 -85.145020 35,225 346 425 -1088
2020-01-29 00:18:24 GMT 38.846397 -85.141846 35,300 346 426 -1088
2020-01-29 00:18:20 GMT 38.840488 -85.139893 35,325 346 426 -1088
2020-01-29 00:18:16 GMT 38.830524 -85.136658 35,450 346 429 -1088
2020-01-29 00:18:13 GMT 38.825684 -85.135132 35,575 346 431 -1088
2020-01-29 00:18:10 GMT 38.819912 -85.133240 35,550 346 431 -1088
2020-01-29 00:18:04 GMT 38.808426 -85.129532 35,625 346 434 -1152
2020-01-29 00:18:01 GMT 38.803337 -85.127930 35,675 346 435 -1152
2020-01-29 00:17:58 GMT 38.798264 -85.126312 35,750 347 436 -1152
2020-01-29 00:17:55 GMT 38.791187 -85.124084 35,825 347 437 -1216
2020-01-29 00:17:49 GMT 38.778992 -85.120178 35,925 347 440 -960
2020-01-29 00:17:44 GMT 38.770477 -85.117470 35,975 347 443 -384
2020-01-29 00:17:41 GMT 38.764515 -85.115601 36,000 347 443 64
2020-01-29 00:17:38 GMT 38.758118 -85.113594 36,000 347 443 0
2020-01-29 00:17:35 GMT 38.752945 -85.111923 36,000 347 444 0
2020-01-29 00:17:31 GMT 38.743984 -85.109131 36,000 347 443 0
2020-01-29 00:17:28 GMT 38.738022 -85.107201 36,000 347 443 0
2020-01-29 00:17:25 GMT 38.732620 -85.105530 36,000 347 443 0
2020-01-29 00:17:21 GMT 38.716507 -85.100517 36,000 347 442 0
2020-01-29 00:17:17 GMT 38.716507 -85.100517 36,000 347 442 64
2020-01-29 00:17:12 GMT 38.708725 -85.098007 36,000 347 443 0
2020-01-29 00:17:09 GMT 38.701157 -85.095642 36,000 347 443 0
2020-01-29 00:17:06 GMT 38.695805 -85.093933 36,000 347 443 0
2020-01-29 00:17:03 GMT 38.687656 -85.091370 36,000 347 443 0
2020-01-29 00:16:59 GMT 38.680672 -85.089111 36,000 347 443 0
2020-01-29 00:16:56 GMT 38.674713 -85.087204 36,000 347 443 -64
2020-01-29 00:16:53 GMT 38.670338 -85.085815 36,000 347 444 0
2020-01-29 00:16:50 GMT 38.660980 -85.082886 36,000 347 444 0
2020-01-29 00:16:47 GMT 38.654572 -85.080872 36,000 347 444 0
2020-01-29 00:16:40 GMT 38.642624 -85.077049 36,000 347 444 0
2020-01-29 00:16:36 GMT 38.633282 -85.074097 36,000 347 444 0
2020-01-29 00:16:32 GMT 38.624908 -85.071442 36,000 347 444 0
2020-01-29 00:16:28 GMT 38.617126 -85.068993 36,000 347 444 0
2020-01-29 00:16:25 GMT 38.611725 -85.067322 36,000 347 444 64
2020-01-29 00:16:18 GMT 38.600418 -85.063721 36,000 347 443 64
2020-01-29 00:16:15 GMT 38.591434 -85.060852 36,000 347 443 0
2020-01-29 00:16:11 GMT 38.580494 -85.057373 36,000 347 443 -64
2020-01-29 00:16:05 GMT 38.571716 -85.054604 36,000 347 443 0
2020-01-29 00:16:02 GMT 38.567551 -85.053284 36,000 347 443 0
2020-01-29 00:15:58 GMT 38.559402 -85.050720 36,000 347 443 0
2020-01-29 00:15:55 GMT 38.554192 -85.049072 36,000 347 443 0
2020-01-29 00:15:52 GMT 38.545853 -85.046417 36,000 347 443 0
2020-01-29 00:15:48 GMT 38.539261 -85.044388 36,000 347 443 0
2020-01-29 00:15:44 GMT 38.530312 -85.041565 36,000 347 443 0
2020-01-29 00:15:41 GMT 38.523788 -85.039497 36,000 347 443 0
2020-01-29 00:15:38 GMT 38.517788 -85.037598 36,000 347 443 0
2020-01-29 00:15:33 GMT 38.508041 -85.034477 36,000 347 443 0
2020-01-29 00:15:29 GMT 38.499298 -85.031731 36,000 346 442 -64
2020-01-29 00:15:24 GMT 38.490974 -85.029053 36,000 346 442 0
2020-01-29 00:15:21 GMT 38.486618 -85.027672 36,000 346 442 0
2020-01-29 00:15:18 GMT 38.479057 -85.025269 36,000 346 442 0
2020-01-29 00:15:15 GMT 38.475098 -85.023987 36,000 346 442 0
2020-01-29 00:15:12 GMT 38.466339 -85.021225 36,000 347 442 0
2020-01-29 00:15:09 GMT 38.459564 -85.019073 36,000 347 443 64
2020-01-29 00:15:02 GMT 38.442490 -85.013702 36,000 347 442 0
2020-01-29 00:14:58 GMT 38.439301 -85.012695 36,000 347 442 0
2020-01-29 00:14:54 GMT 38.431946 -85.010376 36,000 347 442 0
2020-01-29 00:14:51 GMT 38.424591 -85.008087 36,000 347 442 0
2020-01-29 00:14:46 GMT 38.417049 -85.005737 36,000 347 442 0
2020-01-29 00:14:43 GMT 38.409073 -85.003326 36,000 347 442 0
2020-01-29 00:14:37 GMT 38.389160 -84.997185 36,000 347 442 0
2020-01-29 00:14:33 GMT 38.389160 -84.997185 36,000 347 442 0
2020-01-29 00:14:30 GMT 38.383392 -84.995369 36,000 346 442 0
2020-01-29 00:14:25 GMT 38.371891 -84.991791 36,000 347 442 0
2020-01-29 00:14:22 GMT 38.369888 -84.991173 36,000 347 442 0
2020-01-29 00:14:19 GMT 38.362518 -84.988892 36,000 347 442 0
2020-01-29 00:14:16 GMT 38.351223 -84.985397 36,000 347 442 0
2020-01-29 00:14:10 GMT 38.345451 -84.983604 36,000 347 442 0
2020-01-29 00:14:06 GMT 38.327957 -84.978142 36,000 347 442 0
2020-01-29 00:14:01 GMT 38.327957 -84.978142 36,000 347 442 0
2020-01-29 00:13:55 GMT 38.314041 -84.973816 36,000 346 442 0
2020-01-29 00:13:51 GMT 38.304485 -84.970825 36,000 346 442 0
2020-01-29 00:13:48 GMT 38.299347 -84.969200 36,000 346 442 0
2020-01-29 00:13:43 GMT 38.283676 -84.964264 36,000 346 442 0
2020-01-29 00:13:40 GMT 38.283676 -84.964264 36,000 346 442 0
2020-01-29 00:13:35 GMT 38.275345 -84.961571 36,000 346 442 0
2020-01-29 00:13:32 GMT 38.270187 -84.959961 36,000 346 442 0
2020-01-29 00:13:29 GMT 38.261673 -84.957275 36,000 346 442 0
2020-01-29 00:13:26 GMT 38.258492 -84.956261 36,000 346 442 0
2020-01-29 00:13:22 GMT 38.250137 -84.953590 36,000 346 442 0
2020-01-29 00:13:19 GMT 38.242401 -84.951141 36,000 346 442 0
2020-01-29 00:13:15 GMT 38.236473 -84.949272 36,000 346 442 64
2020-01-29 00:13:12 GMT 38.229355 -84.946991 36,000 346 442 0
2020-01-29 00:13:08 GMT 38.220016 -84.944069 36,000 346 442 0
2020-01-29 00:13:01 GMT 38.206741 -84.939804 36,000 346 442 0
2020-01-29 00:12:55 GMT 38.195644 -84.936317 36,000 346 442 0
2020-01-29 00:12:50 GMT 38.186520 -84.933449 36,000 346 442 0
2020-01-29 00:12:46 GMT 38.176163 -84.930161 36,000 346 442 0
2020-01-29 00:12:38 GMT 38.161896 -84.925690 36,000 347 442 0
2020-01-29 00:12:35 GMT 38.154121 -84.923241 36,000 347 442 0
2020-01-29 00:12:28 GMT 38.140202 -84.918884 36,000 347 442 0
2020-01-29 00:12:24 GMT 38.132080 -84.916367 36,000 347 442 0
2020-01-29 00:12:17 GMT 38.111805 -84.910049 36,000 347 442 0
2020-01-29 00:12:13 GMT 38.111805 -84.910049 36,000 347 442 0
2020-01-29 00:12:10 GMT 38.098068 -84.905792 36,000 347 442 0
2020-01-29 00:12:03 GMT 38.090698 -84.903511 36,000 347 442 0
2020-01-29 00:11:59 GMT 38.084152 -84.901451 36,000 347 442 0
2020-01-29 00:11:54 GMT 38.073807 -84.898254 36,000 347 442 0
2020-01-29 00:11:49 GMT 38.063461 -84.895042 36,000 347 441 -64
2020-01-29 00:11:45 GMT 38.054947 -84.892349 36,000 347 442 0
2020-01-29 00:11:42 GMT 38.049751 -84.890762 36,000 347 442 0
2020-01-29 00:11:38 GMT 38.043411 -84.888786 36,000 347 442 0
2020-01-29 00:11:34 GMT 38.033272 -84.885689 36,000 347 442 0
2020-01-29 00:11:31 GMT 38.029266 -84.884491 36,000 347 442 0
2020-01-29 00:11:28 GMT 38.012604 -84.879318 36,000 347 442 -64
2020-01-29 00:11:24 GMT 38.012604 -84.879318 36,000 347 442 0
2020-01-29 00:11:20 GMT 38.004642 -84.876907 36,000 347 441 64
2020-01-29 00:11:17 GMT 38.000656 -84.875694 36,000 347 441 0
2020-01-29 00:11:14 GMT 37.994522 -84.873772 36,000 347 440 0
2020-01-29 00:11:07 GMT 37.981018 -84.869621 36,000 347 440 0
2020-01-29 00:11:03 GMT 37.959671 -84.862999 36,000 347 439 64
2020-01-29 00:10:57 GMT 37.959671 -84.862999 36,000 347 439 0
2020-01-29 00:10:54 GMT 37.953140 -84.860970 36,000 347 437 0
2020-01-29 00:10:49 GMT 37.945450 -84.858574 36,000 347 438 0
2020-01-29 00:10:46 GMT 37.940540 -84.857025 36,000 347 437 0
2020-01-29 00:10:42 GMT 37.930115 -84.853783 36,000 347 437 0
2020-01-29 00:10:35 GMT 37.919495 -84.850510 36,000 347 436 0
2020-01-29 00:10:30 GMT 37.908691 -84.847122 36,000 347 436 0
2020-01-29 00:10:26 GMT 37.899673 -84.844315 36,000 347 436 0
2020-01-29 00:10:23 GMT 37.895142 -84.842911 36,000 347 436 0
2020-01-29 00:10:15 GMT 37.879074 -84.837944 36,000 347 435 0
2020-01-29 00:10:05 GMT 37.857925 -84.831345 36,000 347 435 0
2020-01-29 00:10:01 GMT 37.852463 -84.829681 36,000 347 435 0
2020-01-29 00:09:56 GMT 37.842079 -84.826454 36,000 347 435 0
2020-01-29 00:09:53 GMT 37.837193 -84.824905 36,000 347 435 0
2020-01-29 00:09:46 GMT 37.821739 -84.820183 36,000 347 435 0
2020-01-29 00:09:43 GMT 37.816059 -84.818451 36,000 347 435 0
2020-01-29 00:09:40 GMT 37.811142 -84.816963 36,000 347 435 0
2020-01-29 00:09:35 GMT 37.801346 -84.813927 36,000 347 435 0
2020-01-29 00:09:32 GMT 37.795670 -84.812233 36,000 347 435 0
2020-01-29 00:09:29 GMT 37.789993 -84.810478 36,000 347 435 0
2020-01-29 00:09:26 GMT 37.780838 -84.807617 36,000 347 435 0
2020-01-29 00:09:20 GMT 37.771416 -84.804718 36,000 347 435 0
2020-01-29 00:09:12 GMT 37.754242 -84.799438 36,000 347 435 0
2020-01-29 00:09:05 GMT 37.740509 -84.795227 36,000 347 435 0
2020-01-29 00:09:02 GMT 37.735847 -84.793793 36,000 347 435 0
2020-01-29 00:08:54 GMT 37.719601 -84.788780 36,000 347 435 0
2020-01-29 00:08:51 GMT 37.713730 -84.786987 36,000 347 435 0
2020-01-29 00:08:44 GMT 37.699818 -84.782745 36,000 347 435 0
2020-01-29 00:08:41 GMT 37.679077 -84.776352 36,000 347 435 64
2020-01-29 00:08:33 GMT 37.679077 -84.776352 36,000 347 435 0
2020-01-29 00:08:22 GMT 37.656151 -84.769257 36,000 347 436 -64
2020-01-29 00:08:19 GMT 37.652195 -84.768059 36,000 347 436 -64
2020-01-29 00:08:10 GMT 37.617142 -84.757126 36,000 356 451 64
2020-01-29 00:08:02 GMT 37.617142 -84.757126 36,000 348 439 -64
2020-01-29 00:07:59 GMT 37.612392 -84.755821 36,000 349 440 -64
2020-01-29 00:07:53 GMT 37.598755 -84.752480 36,000 352 443 0
2020-01-29 00:07:49 GMT 37.592094 -84.751106 36,000 353 445 0
2020-01-29 00:07:41 GMT 37.573654 -84.748299 36,000 356 450 64
2020-01-29 00:07:38 GMT 37.570541 -84.747940 36,000 357 450 64
2020-01-29 00:07:31 GMT 37.554527 -84.746803 36,000 359 455 0
2020-01-29 00:07:27 GMT 37.547779 -84.746628 36,000 0 458 0
2020-01-29 00:07:17 GMT 37.524502 -84.747223 36,000 1 458 0
2020-01-29 00:07:12 GMT 37.514740 -84.747597 36,000 1 457 64
2020-01-29 00:07:06 GMT 37.503754 -84.747948 36,000 1 457 0
2020-01-29 00:07:00 GMT 37.487274 -84.748474 36,000 1 456 -64
2020-01-29 00:06:56 GMT 37.479904 -84.748711 36,000 1 456 0
2020-01-29 00:06:46 GMT 37.460083 -84.749413 36,000 1 455 0
2020-01-29 00:06:36 GMT 37.438019 -84.750168 36,000 1 455 0
2020-01-29 00:06:24 GMT 37.415710 -84.750923 36,000 1 455 0
2020-01-29 00:06:15 GMT 37.393433 -84.751694 36,000 1 455 0
2020-01-29 00:06:06 GMT 37.374069 -84.752335 36,000 1 455 -64
2020-01-29 00:05:54 GMT 37.349442 -84.753151 36,000 1 455 64
2020-01-29 00:05:43 GMT 37.327587 -84.753845 36,000 1 455 -64
2020-01-29 00:05:33 GMT 37.305038 -84.754555 36,000 1 455 0
2020-01-29 00:05:22 GMT 37.283157 -84.755257 36,000 1 456 0
2020-01-29 00:05:12 GMT 37.260830 -84.755997 36,000 1 456 0
2020-01-29 00:05:01 GMT 37.239555 -84.756653 36,000 1 456 0
2020-01-29 00:04:51 GMT 37.217396 -84.757370 36,000 1 456 0
2020-01-29 00:04:40 GMT 37.194626 -84.758064 36,000 1 456 -64
2020-01-29 00:04:31 GMT 37.176727 -84.758583 36,000 1 456 0
2020-01-29 00:04:22 GMT 37.155807 -84.759171 36,000 1 456 64
2020-01-29 00:04:18 GMT 37.150131 -84.759346 36,000 1 456 64
2020-01-29 00:04:08 GMT 37.128574 -84.759941 36,000 1 455 0
2020-01-29 00:03:58 GMT 37.106644 -84.760513 36,000 1 455 0
2020-01-29 00:03:47 GMT 37.084305 -84.761162 36,000 1 454 0
2020-01-29 00:03:38 GMT 37.062519 -84.761734 36,000 1 453 0
2020-01-29 00:03:35 GMT 37.057892 -84.761856 36,000 1 453 0
2020-01-29 00:03:25 GMT 37.034637 -84.762558 36,000 1 452 0
2020-01-29 00:03:17 GMT 37.019165 -84.763031 36,000 1 452 0
2020-01-29 00:03:14 GMT 37.013729 -84.763161 36,000 1 452 0
2020-01-29 00:03:09 GMT 37.001999 -84.763519 36,000 1 452 0
2020-01-29 00:03:04 GMT 36.991711 -84.763817 36,000 1 453 0
2020-01-29 00:02:56 GMT 36.974121 -84.764374 36,000 1 453 -64
2020-01-29 00:02:52 GMT 36.969315 -84.764488 36,000 1 453 -64
2020-01-29 00:02:44 GMT 36.949581 -84.765076 36,000 1 453 0
2020-01-29 00:02:38 GMT 36.937408 -84.765427 36,000 1 454 0
2020-01-29 00:02:30 GMT 36.920013 -84.765831 36,000 1 454 0
2020-01-29 00:02:25 GMT 36.911594 -84.766090 36,000 1 455 0
2020-01-29 00:02:22 GMT 36.902527 -84.766296 36,000 1 455 -64
2020-01-29 00:02:15 GMT 36.886963 -84.766708 36,000 1 455 64
2020-01-29 00:02:09 GMT 36.876450 -84.766983 36,000 1 456 64
2020-01-29 00:02:04 GMT 36.865677 -84.767296 36,000 1 456 0
2020-01-29 00:02:01 GMT 36.859589 -84.767471 36,000 1 456 -64
2020-01-29 00:01:53 GMT 36.843521 -84.767937 36,000 1 457 0
2020-01-29 00:01:49 GMT 36.835297 -84.768173 36,000 1 457 0
2020-01-29 00:01:46 GMT 36.826591 -84.768402 36,000 1 458 0
2020-01-29 00:01:40 GMT 36.815140 -84.768738 36,000 1 458 0
2020-01-29 00:01:36 GMT 36.808594 -84.768967 36,000 1 459 0
2020-01-29 00:01:29 GMT 36.783508 -84.769707 36,000 1 459 0
2020-01-29 00:01:24 GMT 36.783508 -84.769707 36,000 1 460 -64
2020-01-29 00:01:18 GMT 36.764786 -84.770226 36,000 1 460 0
2020-01-29 00:01:12 GMT 36.754387 -84.770508 36,000 1 460 0
2020-01-29 00:01:06 GMT 36.743076 -84.770859 36,000 1 460 0
2020-01-29 00:00:55 GMT 36.720932 -84.771484 36,000 1 461 0
2020-01-29 00:00:45 GMT 36.698044 -84.772163 36,000 1 462 0
2020-01-29 00:00:34 GMT 36.674149 -84.772797 36,000 1 462 0
2020-01-29 00:00:25 GMT 36.658119 -84.773193 36,000 1 462 0
2020-01-29 00:00:21 GMT 36.648056 -84.773483 36,000 1 463 -64
2020-01-29 00:00:14 GMT 36.632004 -84.773956 36,000 1 463 64
2020-01-29 00:00:08 GMT 36.620457 -84.774307 36,000 1 463 64
2020-01-29 00:00:03 GMT 36.590431 -84.775185 36,000 1 463 0
2020-01-28 23:59:55 GMT 36.590431 -84.775185 36,000 1 464 0
2020-01-28 23:59:46 GMT 36.573257 -84.775719 36,000 1 464 0
2020-01-28 23:59:43 GMT 36.567032 -84.775887 36,000 1 464 -64
2020-01-28 23:59:39 GMT 36.558449 -84.776176 36,000 1 464 64
2020-01-28 23:59:34 GMT 36.545975 -84.776588 36,000 1 465 64
2020-01-28 23:59:26 GMT 36.531357 -84.777054 36,000 1 465 -64
2020-01-28 23:59:22 GMT 36.508301 -84.777946 36,025 1 465 0
2020-01-28 23:59:16 GMT 36.508301 -84.777946 36,000 1 465 64
2020-01-28 23:59:12 GMT 36.486385 -84.778687 36,000 1 465 0
2020-01-28 23:59:05 GMT 36.486385 -84.778687 36,000 1 465 0
2020-01-28 23:59:01 GMT 36.476074 -84.779037 36,000 1 465 0
2020-01-28 23:58:56 GMT 36.463623 -84.779434 36,000 1 464 128
2020-01-28 23:58:51 GMT 36.453735 -84.779778 36,000 1 465 64
2020-01-28 23:58:44 GMT 36.439957 -84.780235 36,000 1 463 -128
2020-01-28 23:58:39 GMT 36.430298 -84.780411 36,000 359 459 0
2020-01-28 23:58:34 GMT 36.417725 -84.780151 36,000 356 456 0
2020-01-28 23:58:30 GMT 36.396446 -84.778397 36,000 356 452 -64
2020-01-28 23:58:23 GMT 36.396446 -84.778397 36,000 356 454 64
2020-01-28 23:58:19 GMT 36.386997 -84.777458 36,000 356 452 -64
2020-01-28 23:58:14 GMT 36.375046 -84.776344 36,000 356 454 64
2020-01-28 23:58:10 GMT 36.341537 -84.773315 36,000 356 452 -64
2020-01-28 23:58:02 GMT 36.341537 -84.773315 36,000 356 449 -64
2020-01-28 23:57:53 GMT 36.332153 -84.772453 36,000 356 452 -64
2020-01-28 23:57:48 GMT 36.320068 -84.771423 36,000 357 451 64
2020-01-28 23:57:43 GMT 36.312378 -84.770798 36,000 356 450 0
2020-01-28 23:57:37 GMT 36.298828 -84.769569 36,000 356 449 -64
2020-01-28 23:57:27 GMT 36.278961 -84.767815 36,000 356 448 0
2020-01-28 23:57:18 GMT 36.258041 -84.765984 36,000 356 447 64
2020-01-28 23:57:14 GMT 36.252502 -84.765472 36,000 356 447 64
2020-01-28 23:57:10 GMT 36.243393 -84.764671 36,000 356 446 0
2020-01-28 23:57:06 GMT 36.233517 -84.763725 36,000 356 446 0
2020-01-28 23:56:55 GMT 36.213543 -84.761856 36,000 356 444 -64
2020-01-28 23:56:52 GMT 36.207367 -84.761292 36,000 356 444 -64
2020-01-28 23:56:45 GMT 36.189606 -84.759636 36,025 356 442 -64
2020-01-28 23:56:41 GMT 36.183655 -84.759064 36,025 356 441 -64
2020-01-28 23:56:36 GMT 36.173325 -84.758064 36,025 356 435 384
2020-01-28 23:56:24 GMT 36.138363 -84.754791 36,025 356 435 512
2020-01-28 23:56:15 GMT 36.129749 -84.753967 35,950 356 434 1024
2020-01-28 23:56:05 GMT 36.111328 -84.752312 35,750 356 434 1216
2020-01-28 23:56:02 GMT 36.105103 -84.751740 35,750 356 434 1216
2020-01-28 23:55:58 GMT 36.095673 -84.750931 35,650 356 434 1536
2020-01-28 23:55:55 GMT 36.089481 -84.750343 35,450 356 435 1600
2020-01-28 23:55:52 GMT 36.083664 -84.749825 35,500 356 436 1664
2020-01-28 23:55:48 GMT 36.077225 -84.749275 35,275 356 437 1664
2020-01-28 23:55:44 GMT 36.069557 -84.748596 35,175 356 439 1664
2020-01-28 23:55:41 GMT 36.062855 -84.748009 35,175 356 439 1664
2020-01-28 23:55:36 GMT 36.054382 -84.747276 35,075 356 439 1664
2020-01-28 23:55:27 GMT 36.035889 -84.745621 34,825 356 441 1472
2020-01-28 23:55:24 GMT 36.027756 -84.744911 34,350 356 441 1280
2020-01-28 23:55:21 GMT 36.020828 -84.744301 34,675 356 441 1280
2020-01-28 23:55:18 GMT 36.014923 -84.743729 34,550 356 441 896
2020-01-28 23:55:15 GMT 36.005363 -84.742928 34,500 356 442 1280
2020-01-28 23:55:07 GMT 35.993317 -84.741837 34,250 356 441 896
2020-01-28 23:55:04 GMT 35.987823 -84.741386 34,325 356 442 1216
2020-01-28 23:55:00 GMT 35.977989 -84.740532 34,250 356 441 960
2020-01-28 23:54:55 GMT 35.969879 -84.739838 34,175 356 441 896
2020-01-28 23:54:52 GMT 35.962723 -84.739182 34,125 356 440 1024
2020-01-28 23:54:47 GMT 35.953400 -84.738403 34,025 356 440 1280
2020-01-28 23:54:42 GMT 35.942192 -84.737434 33,875 356 441 1472
2020-01-28 23:54:38 GMT 35.935673 -84.736847 33,825 356 441 1472
2020-01-28 23:54:34 GMT 35.926117 -84.736061 33,700 356 442 1536
2020-01-28 23:54:29 GMT 35.914902 -84.735085 33,550 356 442 1600
2020-01-28 23:54:24 GMT 35.905518 -84.734283 33,500 357 443 1600
2020-01-28 23:54:20 GMT 35.899567 -84.733772 33,350 357 443 1472
2020-01-28 23:54:16 GMT 35.887493 -84.732758 33,225 357 444 1344
2020-01-28 23:54:10 GMT 35.870083 -84.731354 33,050 357 443 1600
2020-01-28 23:54:07 GMT 35.870083 -84.731354 33,025 357 444 1600
2020-01-28 23:54:03 GMT 35.861237 -84.730598 32,900 357 444 1536
2020-01-28 23:53:53 GMT 35.841522 -84.729027 32,675 357 445 1344
2020-01-28 23:53:49 GMT 35.834099 -84.728371 32,650 357 445 1344
2020-01-28 23:53:42 GMT 35.814423 -84.726791 32,425 357 444 1024
2020-01-28 23:53:31 GMT 35.792107 -84.724930 32,200 356 443 1600
2020-01-28 23:53:22 GMT 35.776749 -84.723587 32,050 356 442 576
2020-01-28 23:53:19 GMT 35.772491 -84.723183 32,025 356 442 192
2020-01-28 23:53:11 GMT 35.756561 -84.721809 32,000 356 441 -64
2020-01-28 23:53:08 GMT 35.751892 -84.721413 32,000 356 441 -64
2020-01-28 23:53:03 GMT 35.738480 -84.720207 32,000 356 441 0
2020-01-28 23:53:00 GMT 35.732162 -84.719696 32,000 356 441 0
2020-01-28 23:52:57 GMT 35.729279 -84.719414 32,000 356 441 64
2020-01-28 23:52:51 GMT 35.712021 -84.717918 32,000 356 441 0
2020-01-28 23:52:46 GMT 35.706894 -84.717522 32,000 356 441 0
2020-01-28 23:52:40 GMT 35.694302 -84.716393 32,000 356 441 64
2020-01-28 23:52:37 GMT 35.687969 -84.715813 32,000 356 441 0
2020-01-28 23:52:31 GMT 35.673706 -84.714493 32,000 356 441 0
2020-01-28 23:52:27 GMT 35.666786 -84.713821 32,000 356 441 0
2020-01-28 23:52:22 GMT 35.655384 -84.712769 32,000 356 441 0
2020-01-28 23:52:16 GMT 35.645645 -84.711861 32,000 356 441 0
2020-01-28 23:52:11 GMT 35.634247 -84.710831 32,000 356 441 0
2020-01-28 23:52:07 GMT 35.621399 -84.709618 32,000 356 441 0
2020-01-28 23:52:01 GMT 35.613464 -84.708824 32,000 356 441 0
2020-01-28 23:51:55 GMT 35.592087 -84.706879 32,000 356 443 0
2020-01-28 23:51:51 GMT 35.592087 -84.706879 32,000 356 442 64
2020-01-28 23:51:45 GMT 35.582062 -84.706017 32,000 356 442 0
2020-01-28 23:51:39 GMT 35.568611 -84.704826 32,000 356 442 0
2020-01-28 23:51:34 GMT 35.560410 -84.704132 32,000 356 442 0
2020-01-28 23:51:29 GMT 35.549805 -84.703186 32,000 356 443 0
2020-01-28 23:51:24 GMT 35.539764 -84.702354 32,000 356 443 0
2020-01-28 23:51:19 GMT 35.528732 -84.701385 32,000 356 443 0
2020-01-28 23:51:14 GMT 35.519127 -84.700562 32,000 357 443 0
2020-01-28 23:51:08 GMT 35.505627 -84.699448 32,000 356 443 0
2020-01-28 23:51:03 GMT 35.497009 -84.698692 32,000 356 443 0
2020-01-28 23:50:58 GMT 35.486389 -84.697838 32,000 356 443 0
2020-01-28 23:50:52 GMT 35.473709 -84.696693 32,000 356 444 0
2020-01-28 23:50:48 GMT 35.464279 -84.695892 32,000 356 444 -64
2020-01-28 23:50:43 GMT 35.455254 -84.695122 32,000 356 444 0
2020-01-28 23:50:38 GMT 35.445992 -84.694366 32,000 356 444 0
2020-01-28 23:50:33 GMT 35.434120 -84.693314 32,000 357 445 0
2020-01-28 23:50:27 GMT 35.421158 -84.692230 32,000 357 445 0
2020-01-28 23:50:22 GMT 35.413147 -84.691544 32,000 357 445 -64
2020-01-28 23:50:18 GMT 35.398323 -84.690269 32,000 357 446 0
2020-01-28 23:50:12 GMT 35.391106 -84.689629 32,000 357 446 0
2020-01-28 23:50:07 GMT 35.380817 -84.688751 32,000 357 447 0
2020-01-28 23:50:02 GMT 35.370296 -84.687874 32,000 357 447 0
2020-01-28 23:49:58 GMT 35.360596 -84.687080 32,000 357 448 64
2020-01-28 23:49:51 GMT 35.333725 -84.684906 32,000 357 448 0
2020-01-28 23:49:44 GMT 35.333725 -84.684906 32,000 357 448 64
2020-01-28 23:49:41 GMT 35.327099 -84.684372 32,000 357 448 0
2020-01-28 23:49:36 GMT 35.315926 -84.683434 32,000 357 448 0
2020-01-28 23:49:31 GMT 35.305775 -84.682556 32,000 356 448 64
2020-01-28 23:49:27 GMT 35.287388 -84.680984 32,000 356 448 0
2020-01-28 23:49:18 GMT 35.276634 -84.680046 32,000 356 448 0
2020-01-28 23:49:15 GMT 35.273529 -84.679810 32,000 356 448 0
2020-01-28 23:49:10 GMT 35.263000 -84.678902 32,000 356 448 0
2020-01-28 23:49:05 GMT 35.251591 -84.677887 32,000 357 448 0
2020-01-28 23:48:59 GMT 35.241028 -84.677010 32,000 357 448 -64
2020-01-28 23:48:53 GMT 35.228622 -84.675949 32,000 357 448 0
2020-01-28 23:48:49 GMT 35.219696 -84.675163 32,000 356 448 64
2020-01-28 23:48:45 GMT 35.209534 -84.674324 32,000 356 449 0
2020-01-28 23:48:39 GMT 35.198776 -84.673370 32,000 356 449 0
2020-01-28 23:48:33 GMT 35.185501 -84.672249 32,000 356 448 -64
2020-01-28 23:48:28 GMT 35.177032 -84.671463 32,000 356 448 0
2020-01-28 23:48:18 GMT 35.144943 -84.668549 32,000 356 448 0
2020-01-28 23:48:13 GMT 35.144943 -84.668549 32,000 356 449 0
2020-01-28 23:48:08 GMT 35.133949 -84.667564 32,000 356 449 0
2020-01-28 23:48:05 GMT 35.129791 -84.667206 32,000 356 449 0
2020-01-28 23:48:01 GMT 35.120865 -84.666420 32,000 356 450 0
2020-01-28 23:47:57 GMT 35.113174 -84.665749 32,000 356 450 -64
2020-01-28 23:47:50 GMT 35.095963 -84.664230 32,000 356 450 -64
2020-01-28 23:47:45 GMT 35.084747 -84.663216 32,000 356 450 0
2020-01-28 23:47:40 GMT 35.076412 -84.662476 32,000 356 450 0
2020-01-28 23:47:37 GMT 35.069366 -84.661880 32,000 356 450 64
2020-01-28 23:47:34 GMT 35.063324 -84.661316 32,000 356 450 0
2020-01-28 23:47:27 GMT 35.050625 -84.660187 32,000 356 450 -128
2020-01-28 23:47:24 GMT 35.041267 -84.659386 32,025 356 450 64
2020-01-28 23:47:16 GMT 35.026978 -84.658066 31,950 356 447 640
2020-01-28 23:47:13 GMT 35.020569 -84.657509 31,925 356 445 640
2020-01-28 23:47:10 GMT 35.012173 -84.656754 31,875 356 442 768
2020-01-28 23:47:04 GMT 35.000473 -84.655708 31,825 356 443 768
2020-01-28 23:46:55 GMT 34.975250 -84.653473 31,650 356 438 832
2020-01-28 23:46:51 GMT 34.957752 -84.651947 31,525 356 435 1536
2020-01-28 23:46:43 GMT 34.957752 -84.651947 31,525 356 435 1216
2020-01-28 23:46:35 GMT 34.943089 -84.650688 31,325 356 435 1728
2020-01-28 23:46:32 GMT 34.936661 -84.650162 31,250 356 435 1728
2020-01-28 23:46:22 GMT 34.914738 -84.648285 30,900 356 436 1920
2020-01-28 23:46:14 GMT 34.901051 -84.647079 30,700 356 437 1920
2020-01-28 23:46:10 GMT 34.893356 -84.646461 30,575 356 437 1920
2020-01-28 23:46:01 GMT 34.873535 -84.644730 30,250 356 439 2048
2020-01-28 23:45:53 GMT 34.859344 -84.643547 29,950 356 440 2112
2020-01-28 23:45:50 GMT 34.852249 -84.642929 29,875 356 440 1984
2020-01-28 23:45:43 GMT 34.837788 -84.641647 29,625 356 441 2048
2020-01-28 23:45:40 GMT 34.830460 -84.641029 29,525 356 441 1792
2020-01-28 23:45:32 GMT 34.813950 -84.639648 29,300 356 441 1472
2020-01-28 23:45:28 GMT 34.808830 -84.639191 29,250 356 441 1472
2020-01-28 23:45:22 GMT 34.795441 -84.638054 29,075 356 440 1472
2020-01-28 23:45:19 GMT 34.787521 -84.637383 28,975 356 439 1536
2020-01-28 23:45:10 GMT 34.771271 -84.635979 28,775 356 439 1536
2020-01-28 23:45:07 GMT 34.766003 -84.635468 28,700 356 438 1536
2020-01-28 23:45:01 GMT 34.750408 -84.634148 28,500 356 438 1664
2020-01-28 23:44:58 GMT 34.744354 -84.633629 28,425 356 438 1728
2020-01-28 23:44:51 GMT 34.733231 -84.632675 28,150 356 437 1600
2020-01-28 23:44:47 GMT 34.723938 -84.631889 28,075 356 436 1728
2020-01-28 23:44:40 GMT 34.711632 -84.630836 27,800 356 436 1792
2020-01-28 23:44:37 GMT 34.701946 -84.629974 27,825 356 436 1664
2020-01-28 23:44:30 GMT 34.674774 -84.627632 27,475 356 435 1856
2020-01-28 23:44:23 GMT 34.674774 -84.627632 27,450 356 435 1856
2020-01-28 23:44:20 GMT 34.660515 -84.626427 27,375 357 432 1920
2020-01-28 23:44:16 GMT 34.660515 -84.626427 27,225 357 434 1728
2020-01-28 23:44:10 GMT 34.649506 -84.625496 27,075 356 434 1792
2020-01-28 23:44:01 GMT 34.626488 -84.623566 26,725 357 433 1728
2020-01-28 23:43:49 GMT 34.607910 -84.621964 26,425 357 432 1920
2020-01-28 23:43:41 GMT 34.591152 -84.620537 26,200 357 431 1792
2020-01-28 23:43:38 GMT 34.585800 -84.620071 26,100 356 430 1856
2020-01-28 23:43:30 GMT 34.569901 -84.618713 25,875 356 429 1664
2020-01-28 23:43:27 GMT 34.564728 -84.618324 25,800 356 428 1664
2020-01-28 23:43:18 GMT 34.546135 -84.616753 25,525 356 427 1792
2020-01-28 23:43:11 GMT 34.533939 -84.615723 25,350 356 425 1856
2020-01-28 23:43:07 GMT 34.526276 -84.615074 25,225 356 425 1856
2020-01-28 23:43:02 GMT 34.514511 -84.614067 25,025 356 423 1856
2020-01-28 23:42:56 GMT 34.504532 -84.613220 24,875 356 423 1856
2020-01-28 23:42:53 GMT 34.495789 -84.612442 24,725 356 420 1920
2020-01-28 23:42:47 GMT 34.475330 -84.610687 24,450 356 419 1920
2020-01-28 23:42:42 GMT 34.475330 -84.610687 24,400 356 420 1920
2020-01-28 23:42:36 GMT 34.464478 -84.609749 24,025 356 419 1984
2020-01-28 23:42:30 GMT 34.451916 -84.608688 24,000 356 418 2112
2020-01-28 23:42:24 GMT 34.438602 -84.607491 23,750 356 417 2048
2020-01-28 23:42:16 GMT 34.426682 -84.606461 23,525 356 415 2112
2020-01-28 23:42:13 GMT 34.420578 -84.605934 23,425 356 415 2112
2020-01-28 23:42:10 GMT 34.414814 -84.605431 23,325 356 414 2112
2020-01-28 23:42:05 GMT 34.406021 -84.604706 23,175 356 413 2048
2020-01-28 23:42:02 GMT 34.399124 -84.604111 23,050 356 412 2048
2020-01-28 23:41:57 GMT 34.389256 -84.603249 22,575 356 410 2176
2020-01-28 23:41:54 GMT 34.384506 -84.602852 22,650 356 410 2176
2020-01-28 23:41:50 GMT 34.374985 -84.602013 22,575 356 410 2240
2020-01-28 23:41:43 GMT 34.362114 -84.600906 22,325 356 409 2368
2020-01-28 23:41:39 GMT 34.354935 -84.600334 22,175 356 408 2432
2020-01-28 23:41:31 GMT 34.340050 -84.599014 21,725 356 408 2432
2020-01-28 23:41:28 GMT 34.334602 -84.598557 21,725 356 407 2496
2020-01-28 23:41:24 GMT 34.327423 -84.597977 21,425 357 405 2240
2020-01-28 23:41:18 GMT 34.314651 -84.596916 21,300 357 405 2176
2020-01-28 23:41:13 GMT 34.306625 -84.596214 21,050 356 404 2240
2020-01-28 23:41:10 GMT 34.300598 -84.595680 21,050 356 404 2240
2020-01-28 23:41:07 GMT 34.295975 -84.595284 20,950 356 403 2432
2020-01-28 23:41:02 GMT 34.284576 -84.594444 20,700 358 403 2304
2020-01-28 23:40:57 GMT 34.277115 -84.594109 20,550 359 403 2368
2020-01-28 23:40:53 GMT 34.255829 -84.593491 20,125 359 402 2304
2020-01-28 23:40:46 GMT 34.255829 -84.593491 20,100 359 401 2304
2020-01-28 23:40:42 GMT 34.249878 -84.593292 19,975 359 400 2432
2020-01-28 23:40:37 GMT 34.238983 -84.593010 19,725 359 398 2496
2020-01-28 23:40:32 GMT 34.230881 -84.592766 19,550 359 398 2560
2020-01-28 23:40:26 GMT 34.219620 -84.592438 19,025 359 396 2496
2020-01-28 23:40:20 GMT 34.206757 -84.592033 19,000 359 394 2688
2020-01-28 23:40:14 GMT 34.197418 -84.591759 18,775 359 395 2432
2020-01-28 23:40:11 GMT 34.191921 -84.591576 18,450 359 393 2560
2020-01-28 23:40:06 GMT 34.182632 -84.591248 18,275 359 392 2432
2020-01-28 23:39:58 GMT 34.167385 -84.590775 18,125 359 389 2304
2020-01-28 23:39:54 GMT 34.160358 -84.590546 17,950 359 388 2560
2020-01-28 23:39:50 GMT 34.143860 -84.590019 17,675 359 387 2624
2020-01-28 23:39:45 GMT 34.143860 -84.590019 17,550 359 386 2624
2020-01-28 23:39:38 GMT 34.131866 -84.589684 17,275 359 385 2304
2020-01-28 23:39:33 GMT 34.123489 -84.589455 17,100 359 383 1792
2020-01-28 23:39:27 GMT 34.112915 -84.589119 16,900 359 379 2368
2020-01-28 23:39:23 GMT 34.105892 -84.588943 16,725 359 377 2432
2020-01-28 23:39:18 GMT 34.095245 -84.588615 16,475 359 375 2624
2020-01-28 23:39:13 GMT 34.088470 -84.588448 16,300 359 374 2752
2020-01-28 23:39:08 GMT 34.080009 -84.588203 16,075 359 373 2688
2020-01-28 23:39:05 GMT 34.073910 -84.588036 16,000 359 373 2496
2020-01-28 23:39:02 GMT 34.068928 -84.587860 15,825 359 371 2368
2020-01-28 23:38:59 GMT 34.063622 -84.587685 15,700 359 369 2368
2020-01-28 23:38:52 GMT 34.050632 -84.587341 15,400 359 366 2304
2020-01-28 23:38:48 GMT 34.045700 -84.587234 15,275 359 365 2368
2020-01-28 23:38:44 GMT 34.036251 -84.587006 15,025 359 362 2752
2020-01-28 23:38:37 GMT 34.027542 -84.586716 14,800 359 361 2880
2020-01-28 23:38:32 GMT 34.017380 -84.586433 14,500 359 359 3072
2020-01-28 23:38:26 GMT 34.005898 -84.586143 14,150 359 358 2880
2020-01-28 23:38:20 GMT 33.998730 -84.585915 13,925 359 358 2816
2020-01-28 23:38:17 GMT 33.994080 -84.585815 13,800 359 357 2816
2020-01-28 23:38:11 GMT 33.982670 -84.585510 13,550 359 356 2944
2020-01-28 23:38:07 GMT 33.977097 -84.585365 13,300 359 355 2944
2020-01-28 23:38:00 GMT 33.965103 -84.584976 12,900 359 353 2624
2020-01-28 23:37:56 GMT 33.959198 -84.584808 12,800 359 352 2688
2020-01-28 23:37:52 GMT 33.951691 -84.584579 12,575 359 348 2496
2020-01-28 23:37:46 GMT 33.942448 -84.584373 12,300 359 350 2944
2020-01-28 23:37:42 GMT 33.934021 -84.584129 12,050 359 349 2752
2020-01-28 23:37:39 GMT 33.930763 -84.584023 11,975 359 348 2496
2020-01-28 23:37:35 GMT 33.926102 -84.583908 11,850 359 347 2176
2020-01-28 23:37:31 GMT 33.918045 -84.583572 11,700 359 344 1792
2020-01-28 23:37:28 GMT 33.914051 -84.583450 11,625 359 342 1664
2020-01-28 23:37:24 GMT 33.908340 -84.583237 11,525 359 340 1536
2020-01-28 23:37:19 GMT 33.898315 -84.582840 11,400 359 331 1152
2020-01-28 23:37:14 GMT 33.892776 -84.582649 11,325 359 328 1216
2020-01-28 23:37:11 GMT 33.885818 -84.582397 11,225 359 323 1536
2020-01-28 23:37:08 GMT 33.882339 -84.582283 11,150 359 321 1536
2020-01-28 23:37:04 GMT 33.877602 -84.582085 11,075 359 318 1536
2020-01-28 23:36:58 GMT 33.867031 -84.581619 10,925 359 311 1344
2020-01-28 23:36:54 GMT 33.862747 -84.581497 10,850 359 306 1408
2020-01-28 23:36:50 GMT 33.852676 -84.581161 10,650 359 300 1984
2020-01-28 23:36:43 GMT 33.847385 -84.581055 10,525 359 298 2048
2020-01-28 23:36:40 GMT 33.838165 -84.580826 10,300 0 294 2368
2020-01-28 23:36:33 GMT 33.833817 -84.580711 10,150 0 293 2240
2020-01-28 23:36:27 GMT 33.823975 -84.580605 9,975 0 286 704
2020-01-28 23:36:24 GMT 33.820633 -84.580605 9,950 0 283 192
2020-01-28 23:36:18 GMT 33.813950 -84.580658 9,925 0 282 448
2020-01-28 23:36:15 GMT 33.810051 -84.580711 9,900 0 281 512
2020-01-28 23:36:12 GMT 33.806236 -84.580711 9,875 0 281 768
2020-01-28 23:36:09 GMT 33.800262 -84.580826 9,775 0 279 1856
2020-01-28 23:36:05 GMT 33.795853 -84.580826 9,700 0 279 1792
2020-01-28 23:36:02 GMT 33.792641 -84.580879 9,600 0 278 2240
2020-01-28 23:35:55 GMT 33.783142 -84.581047 9,275 1 277 2880
2020-01-28 23:35:52 GMT 33.779282 -84.581161 9,125 1 277 3200
2020-01-28 23:35:47 GMT 33.772999 -84.581337 8,775 1 277 2752
2020-01-28 23:35:44 GMT 33.769409 -84.581444 8,750 1 277 2688
2020-01-28 23:35:41 GMT 33.765827 -84.581566 8,625 2 276 2432
2020-01-28 23:35:38 GMT 33.760208 -84.581833 8,450 2 273 2496
2020-01-28 23:35:35 GMT 33.756889 -84.582024 8,350 2 273 2624
2020-01-28 23:35:31 GMT 33.752609 -84.582230 8,175 2 271 2816
2020-01-28 23:35:23 GMT 33.743435 -84.582649 7,825 1 270 3072
2020-01-28 23:35:20 GMT 33.739571 -84.582764 7,675 1 270 2752
2020-01-28 23:35:09 GMT 33.725838 -84.582764 7,250 359 262 2432
2020-01-28 23:35:05 GMT 33.720245 -84.582565 7,125 356 259 2752
2020-01-28 23:35:02 GMT 33.717602 -84.582253 6,950 352 258 2880
2020-01-28 23:34:57 GMT 33.709641 -84.580421 6,675 341 253 1920
2020-01-28 23:34:53 GMT 33.705078 -84.578476 6,550 337 252 2240
2020-01-28 23:34:49 GMT 33.702003 -84.576820 6,425 332 250 2944
2020-01-28 23:34:45 GMT 33.698547 -84.574547 6,250 328 250 3264
2020-01-28 23:34:39 GMT 33.692650 -84.569489 5,900 319 250 3392
2020-01-28 23:34:35 GMT 33.689255 -84.565636 5,650 296 245 2048
2020-01-28 23:34:29 GMT 33.684643 -84.558739 5,375 301 251 3008
2020-01-28 23:34:26 GMT 33.682590 -84.554558 5,200 296 245 2048
2020-01-28 23:34:21 GMT 33.680466 -84.549271 4,975 296 250 2816
2020-01-28 23:34:17 GMT 33.678497 -84.544205 4,775 295 251 3008
2020-01-28 23:34:08 GMT 33.674011 -84.532791 4,375 296 245 2112
2020-01-28 23:34:01 GMT 33.668839 -84.519562 4,025 296 235 1984
2020-01-28 23:33:46 GMT 33.663834 -84.506836 3,725 296 219 1216
2020-01-28 23:33:37 GMT 33.659775 -84.496803 3,500 297 205 1984
2020-01-28 23:33:26 GMT 33.655472 -84.486488 3,200 298 194 1280
2020-01-28 23:33:15 GMT 33.650890 -84.475761 2,950 295 178 960
2020-01-28 23:33:12 GMT 33.649727 -84.472794 2,900 289 170 1536
2020-01-28 23:33:03 GMT 33.647305 -84.463860 2,650 277 162 1536

Making use of Plane Finder data

You are free to use the raw flight data, aircraft information and images provided in this report for your own purposes provided the data is correctly attributed to Plane Finder. We ask that you please credit Plane Finder and link to planefinder.net in close proximity to the content.

Optionally one of the following logos (no smaller then 150x24px) can be used and must link to planefinder.net

Embedding the Plane Finder map

You are welcome to embed the Plane Finder playback map on your website to offer visitors a more interactive experience. We suggest using the following HTML code:

<iframe src="//planefinder.net/data/report/AA1119-N904NN-7700-squawk-2020-01-29/map" width="800" height="600" seamless="seamless"></iframe>

Where our data comes from

Plane Finder has a global network of data feeds and antenna radars that receive data broadcast directly from aircraft. The primary technologies used are ADS-B and MLAT. We also show feeds from the FAA and a FLARM glider feed.

Click here to find out more about the Plane Finder network.

How we collect our data